<?xml version="1.0" encoding="UTF-8" standalone="no" ?>
<gpx xmlns="http://www.topografix.com/GPX/1/1" xmlns:xsi="http://www.w3.org/2001/XMLSchema-instance" xsi:schemaLocation="http://www.topografix.com/GPX/1/1 http://www.topografix.com/GPX/1/1/gpx.xsd" version="1.1" creator="VisuGPX - https://www.visugpx.com">
  <metadata>
    <name>09 - Cagnotte - Sorde l'Abbaye</name>
    <desc><![CDATA[Voie de Tours  - Cagnotte - Sorde l\'Abbaye]]></desc>
  </metadata>
  <trk>
    <name><![CDATA[09 - Cagnotte - Sorde l'Abbaye]]></name>
    <trkseg>
      <trkpt lat="43.59458" lon="-1.06797">
        <ele>40.03</ele>
        <time>2022-04-03T07:20:46Z</time>
      </trkpt>
      <trkpt lat="43.5945" lon="-1.06789">
        <ele>40.03</ele>
        <time>2022-04-03T07:21:12Z</time>
      </trkpt>
      <trkpt lat="43.59443" lon="-1.06783">
        <ele>40.03</ele>
        <time>2022-04-03T07:21:26Z</time>
      </trkpt>
      <trkpt lat="43.5943" lon="-1.06771">
        <ele>40.03</ele>
        <time>2022-04-03T07:21:32Z</time>
      </trkpt>
      <trkpt lat="43.5942" lon="-1.0676">
        <ele>40.03</ele>
        <time>2022-04-03T07:21:42Z</time>
      </trkpt>
      <trkpt lat="43.59409" lon="-1.0675">
        <ele>40.03</ele>
        <time>2022-04-03T07:21:51Z</time>
      </trkpt>
      <trkpt lat="43.59397" lon="-1.06739">
        <ele>38.59</ele>
        <time>2022-04-03T07:22:09Z</time>
      </trkpt>
      <trkpt lat="43.59388" lon="-1.0672">
        <ele>38.59</ele>
        <time>2022-04-03T07:22:13Z</time>
      </trkpt>
      <trkpt lat="43.59388" lon="-1.06703">
        <ele>37.63</ele>
        <time>2022-04-03T07:22:32Z</time>
      </trkpt>
      <trkpt lat="43.5939" lon="-1.06682">
        <ele>36.19</ele>
        <time>2022-04-03T07:22:50Z</time>
      </trkpt>
      <trkpt lat="43.59391" lon="-1.06658">
        <ele>33.78</ele>
        <time>2022-04-03T07:23:11Z</time>
      </trkpt>
      <trkpt lat="43.59392" lon="-1.06643">
        <ele>30.9</ele>
        <time>2022-04-03T07:23:30Z</time>
      </trkpt>
      <trkpt lat="43.59392" lon="-1.06625">
        <ele>29.46</ele>
        <time>2022-04-03T07:23:49Z</time>
      </trkpt>
      <trkpt lat="43.59393" lon="-1.06617">
        <ele>29.46</ele>
        <time>2022-04-03T07:24:00Z</time>
      </trkpt>
      <trkpt lat="43.59384" lon="-1.06606">
        <ele>28.02</ele>
        <time>2022-04-03T07:28:21Z</time>
      </trkpt>
      <trkpt lat="43.59367" lon="-1.06608">
        <ele>28.02</ele>
        <time>2022-04-03T07:28:38Z</time>
      </trkpt>
      <trkpt lat="43.59365" lon="-1.06609">
        <ele>28.02</ele>
        <time>2022-04-03T07:28:45Z</time>
      </trkpt>
      <trkpt lat="43.59362" lon="-1.06608">
        <ele>28.02</ele>
        <time>2022-04-03T07:28:48Z</time>
      </trkpt>
      <trkpt lat="43.5935" lon="-1.06606">
        <ele>28.02</ele>
        <time>2022-04-03T07:28:58Z</time>
      </trkpt>
      <trkpt lat="43.59337" lon="-1.06608">
        <ele>28.02</ele>
        <time>2022-04-03T07:29:14Z</time>
      </trkpt>
      <trkpt lat="43.59328" lon="-1.06609">
        <ele>28.02</ele>
        <time>2022-04-03T07:29:38Z</time>
      </trkpt>
      <trkpt lat="43.59312" lon="-1.06605">
        <ele>28.02</ele>
        <time>2022-04-03T07:29:54Z</time>
      </trkpt>
      <trkpt lat="43.59287" lon="-1.06605">
        <ele>28.02</ele>
        <time>2022-04-03T07:30:13Z</time>
      </trkpt>
      <trkpt lat="43.59267" lon="-1.06603">
        <ele>29.46</ele>
        <time>2022-04-03T07:30:29Z</time>
      </trkpt>
      <trkpt lat="43.59247" lon="-1.06601">
        <ele>31.38</ele>
        <time>2022-04-03T07:30:47Z</time>
      </trkpt>
      <trkpt lat="43.59228" lon="-1.06602">
        <ele>33.78</ele>
        <time>2022-04-03T07:31:04Z</time>
      </trkpt>
      <trkpt lat="43.59213" lon="-1.06603">
        <ele>35.23</ele>
        <time>2022-04-03T07:31:18Z</time>
      </trkpt>
      <trkpt lat="43.59199" lon="-1.06599">
        <ele>36.67</ele>
        <time>2022-04-03T07:31:32Z</time>
      </trkpt>
      <trkpt lat="43.59187" lon="-1.06593">
        <ele>37.63</ele>
        <time>2022-04-03T07:31:43Z</time>
      </trkpt>
      <trkpt lat="43.5918" lon="-1.06587">
        <ele>38.11</ele>
        <time>2022-04-03T07:31:49Z</time>
      </trkpt>
      <trkpt lat="43.59172" lon="-1.06562">
        <ele>39.07</ele>
        <time>2022-04-03T07:32:06Z</time>
      </trkpt>
      <trkpt lat="43.59166" lon="-1.06536">
        <ele>41.47</ele>
        <time>2022-04-03T07:32:25Z</time>
      </trkpt>
      <trkpt lat="43.59161" lon="-1.06514">
        <ele>41.47</ele>
        <time>2022-04-03T07:32:40Z</time>
      </trkpt>
      <trkpt lat="43.59157" lon="-1.065">
        <ele>41.47</ele>
        <time>2022-04-03T07:32:50Z</time>
      </trkpt>
      <trkpt lat="43.59149" lon="-1.06477">
        <ele>41.95</ele>
        <time>2022-04-03T07:33:08Z</time>
      </trkpt>
      <trkpt lat="43.59145" lon="-1.06468">
        <ele>41.95</ele>
        <time>2022-04-03T07:33:15Z</time>
      </trkpt>
      <trkpt lat="43.59143" lon="-1.06461">
        <ele>41.95</ele>
        <time>2022-04-03T07:33:20Z</time>
      </trkpt>
      <trkpt lat="43.59131" lon="-1.06438">
        <ele>42.44</ele>
        <time>2022-04-03T07:33:39Z</time>
      </trkpt>
      <trkpt lat="43.5912" lon="-1.06417">
        <ele>42.44</ele>
        <time>2022-04-03T07:33:56Z</time>
      </trkpt>
      <trkpt lat="43.59115" lon="-1.06411">
        <ele>41.47</ele>
        <time>2022-04-03T07:35:56Z</time>
      </trkpt>
      <trkpt lat="43.59112" lon="-1.06406">
        <ele>41.47</ele>
        <time>2022-04-03T07:36:16Z</time>
      </trkpt>
      <trkpt lat="43.59104" lon="-1.0639">
        <ele>40.99</ele>
        <time>2022-04-03T07:36:26Z</time>
      </trkpt>
      <trkpt lat="43.59091" lon="-1.06374">
        <ele>40.03</ele>
        <time>2022-04-03T07:36:41Z</time>
      </trkpt>
      <trkpt lat="43.5908" lon="-1.06353">
        <ele>39.07</ele>
        <time>2022-04-03T07:37:00Z</time>
      </trkpt>
      <trkpt lat="43.59058" lon="-1.06327">
        <ele>39.07</ele>
        <time>2022-04-03T07:37:16Z</time>
      </trkpt>
      <trkpt lat="43.59039" lon="-1.06303">
        <ele>39.07</ele>
        <time>2022-04-03T07:37:37Z</time>
      </trkpt>
      <trkpt lat="43.59015" lon="-1.06279">
        <ele>38.59</ele>
        <time>2022-04-03T07:37:58Z</time>
      </trkpt>
      <trkpt lat="43.58998" lon="-1.06264">
        <ele>40.03</ele>
        <time>2022-04-03T07:38:15Z</time>
      </trkpt>
      <trkpt lat="43.58986" lon="-1.06251">
        <ele>41.47</ele>
        <time>2022-04-03T07:38:33Z</time>
      </trkpt>
      <trkpt lat="43.5898" lon="-1.06248">
        <ele>41.47</ele>
        <time>2022-04-03T07:38:35Z</time>
      </trkpt>
      <trkpt lat="43.58958" lon="-1.06227">
        <ele>42.44</ele>
        <time>2022-04-03T07:38:56Z</time>
      </trkpt>
      <trkpt lat="43.5894" lon="-1.06211">
        <ele>42.92</ele>
        <time>2022-04-03T07:39:15Z</time>
      </trkpt>
      <trkpt lat="43.58929" lon="-1.06191">
        <ele>40.99</ele>
        <time>2022-04-03T07:39:33Z</time>
      </trkpt>
      <trkpt lat="43.58916" lon="-1.06165">
        <ele>39.07</ele>
        <time>2022-04-03T07:39:53Z</time>
      </trkpt>
      <trkpt lat="43.58901" lon="-1.06133">
        <ele>37.15</ele>
        <time>2022-04-03T07:40:14Z</time>
      </trkpt>
      <trkpt lat="43.58891" lon="-1.06105">
        <ele>36.19</ele>
        <time>2022-04-03T07:40:32Z</time>
      </trkpt>
      <trkpt lat="43.5888" lon="-1.06081">
        <ele>35.23</ele>
        <time>2022-04-03T07:40:48Z</time>
      </trkpt>
      <trkpt lat="43.5887" lon="-1.06054">
        <ele>34.74</ele>
        <time>2022-04-03T07:41:05Z</time>
      </trkpt>
      <trkpt lat="43.58862" lon="-1.06031">
        <ele>33.78</ele>
        <time>2022-04-03T07:41:21Z</time>
      </trkpt>
      <trkpt lat="43.58854" lon="-1.06017">
        <ele>32.82</ele>
        <time>2022-04-03T07:41:35Z</time>
      </trkpt>
      <trkpt lat="43.58843" lon="-1.05993">
        <ele>32.34</ele>
        <time>2022-04-03T07:41:52Z</time>
      </trkpt>
      <trkpt lat="43.58836" lon="-1.05974">
        <ele>31.38</ele>
        <time>2022-04-03T07:42:06Z</time>
      </trkpt>
      <trkpt lat="43.58825" lon="-1.05952">
        <ele>31.38</ele>
        <time>2022-04-03T07:42:22Z</time>
      </trkpt>
      <trkpt lat="43.58814" lon="-1.05928">
        <ele>30.9</ele>
        <time>2022-04-03T07:42:40Z</time>
      </trkpt>
      <trkpt lat="43.58804" lon="-1.05908">
        <ele>29.94</ele>
        <time>2022-04-03T07:42:55Z</time>
      </trkpt>
      <trkpt lat="43.58794" lon="-1.05885">
        <ele>29.94</ele>
        <time>2022-04-03T07:43:11Z</time>
      </trkpt>
      <trkpt lat="43.58782" lon="-1.05861">
        <ele>29.46</ele>
        <time>2022-04-03T07:43:29Z</time>
      </trkpt>
      <trkpt lat="43.58777" lon="-1.05849">
        <ele>29.46</ele>
        <time>2022-04-03T07:43:45Z</time>
      </trkpt>
      <trkpt lat="43.58756" lon="-1.05814">
        <ele>29.46</ele>
        <time>2022-04-03T07:44:02Z</time>
      </trkpt>
      <trkpt lat="43.58742" lon="-1.05793">
        <ele>29.46</ele>
        <time>2022-04-03T07:44:19Z</time>
      </trkpt>
      <trkpt lat="43.58725" lon="-1.05768">
        <ele>28.02</ele>
        <time>2022-04-03T07:44:41Z</time>
      </trkpt>
      <trkpt lat="43.58712" lon="-1.05743">
        <ele>27.53</ele>
        <time>2022-04-03T07:45:00Z</time>
      </trkpt>
      <trkpt lat="43.58697" lon="-1.05716">
        <ele>27.53</ele>
        <time>2022-04-03T07:45:20Z</time>
      </trkpt>
      <trkpt lat="43.58679" lon="-1.05688">
        <ele>26.57</ele>
        <time>2022-04-03T07:45:42Z</time>
      </trkpt>
      <trkpt lat="43.58664" lon="-1.05672">
        <ele>26.09</ele>
        <time>2022-04-03T07:45:58Z</time>
      </trkpt>
      <trkpt lat="43.58646" lon="-1.05654">
        <ele>25.13</ele>
        <time>2022-04-03T07:46:17Z</time>
      </trkpt>
      <trkpt lat="43.58635" lon="-1.05644">
        <ele>25.13</ele>
        <time>2022-04-03T07:46:34Z</time>
      </trkpt>
      <trkpt lat="43.5861" lon="-1.05654">
        <ele>24.65</ele>
        <time>2022-04-03T07:46:52Z</time>
      </trkpt>
      <trkpt lat="43.58592" lon="-1.05664">
        <ele>24.65</ele>
        <time>2022-04-03T07:47:10Z</time>
      </trkpt>
      <trkpt lat="43.58574" lon="-1.05676">
        <ele>24.65</ele>
        <time>2022-04-03T07:47:29Z</time>
      </trkpt>
      <trkpt lat="43.58551" lon="-1.05688">
        <ele>24.65</ele>
        <time>2022-04-03T07:47:48Z</time>
      </trkpt>
      <trkpt lat="43.58534" lon="-1.05699">
        <ele>26.09</ele>
        <time>2022-04-03T07:48:07Z</time>
      </trkpt>
      <trkpt lat="43.58532" lon="-1.057">
        <ele>26.09</ele>
        <time>2022-04-03T07:48:08Z</time>
      </trkpt>
      <trkpt lat="43.58511" lon="-1.05712">
        <ele>26.09</ele>
        <time>2022-04-03T07:48:26Z</time>
      </trkpt>
      <trkpt lat="43.58494" lon="-1.05723">
        <ele>26.57</ele>
        <time>2022-04-03T07:48:43Z</time>
      </trkpt>
      <trkpt lat="43.58477" lon="-1.05738">
        <ele>27.53</ele>
        <time>2022-04-03T07:48:59Z</time>
      </trkpt>
      <trkpt lat="43.58458" lon="-1.05756">
        <ele>28.98</ele>
        <time>2022-04-03T07:49:19Z</time>
      </trkpt>
      <trkpt lat="43.58438" lon="-1.05765">
        <ele>29.46</ele>
        <time>2022-04-03T07:49:37Z</time>
      </trkpt>
      <trkpt lat="43.58423" lon="-1.05774">
        <ele>29.94</ele>
        <time>2022-04-03T07:49:52Z</time>
      </trkpt>
      <trkpt lat="43.58406" lon="-1.05782">
        <ele>30.42</ele>
        <time>2022-04-03T07:50:10Z</time>
      </trkpt>
      <trkpt lat="43.58387" lon="-1.05783">
        <ele>30.42</ele>
        <time>2022-04-03T07:50:26Z</time>
      </trkpt>
      <trkpt lat="43.58363" lon="-1.05783">
        <ele>30.42</ele>
        <time>2022-04-03T07:50:43Z</time>
      </trkpt>
      <trkpt lat="43.58354" lon="-1.05784">
        <ele>30.42</ele>
        <time>2022-04-03T07:50:49Z</time>
      </trkpt>
      <trkpt lat="43.58349" lon="-1.05783">
        <ele>30.42</ele>
        <time>2022-04-03T07:50:53Z</time>
      </trkpt>
      <trkpt lat="43.58329" lon="-1.05777">
        <ele>31.38</ele>
        <time>2022-04-03T07:51:10Z</time>
      </trkpt>
      <trkpt lat="43.58307" lon="-1.05773">
        <ele>31.38</ele>
        <time>2022-04-03T07:51:29Z</time>
      </trkpt>
      <trkpt lat="43.58289" lon="-1.05771">
        <ele>30.42</ele>
        <time>2022-04-03T07:51:46Z</time>
      </trkpt>
      <trkpt lat="43.58267" lon="-1.05766">
        <ele>30.42</ele>
        <time>2022-04-03T07:52:04Z</time>
      </trkpt>
      <trkpt lat="43.58251" lon="-1.0575">
        <ele>30.42</ele>
        <time>2022-04-03T07:52:21Z</time>
      </trkpt>
      <trkpt lat="43.58231" lon="-1.05738">
        <ele>28.98</ele>
        <time>2022-04-03T07:52:42Z</time>
      </trkpt>
      <trkpt lat="43.58227" lon="-1.05739">
        <ele>28.98</ele>
        <time>2022-04-03T07:52:46Z</time>
      </trkpt>
      <trkpt lat="43.58207" lon="-1.05756">
        <ele>28.5</ele>
        <time>2022-04-03T07:53:07Z</time>
      </trkpt>
      <trkpt lat="43.58191" lon="-1.05775">
        <ele>28.5</ele>
        <time>2022-04-03T07:53:25Z</time>
      </trkpt>
      <trkpt lat="43.58176" lon="-1.05793">
        <ele>28.5</ele>
        <time>2022-04-03T07:53:42Z</time>
      </trkpt>
      <trkpt lat="43.58161" lon="-1.05809">
        <ele>29.46</ele>
        <time>2022-04-03T07:53:58Z</time>
      </trkpt>
      <trkpt lat="43.58147" lon="-1.05825">
        <ele>30.42</ele>
        <time>2022-04-03T07:54:15Z</time>
      </trkpt>
      <trkpt lat="43.58129" lon="-1.05844">
        <ele>30.42</ele>
        <time>2022-04-03T07:54:35Z</time>
      </trkpt>
      <trkpt lat="43.58126" lon="-1.05848">
        <ele>30.42</ele>
        <time>2022-04-03T07:54:39Z</time>
      </trkpt>
      <trkpt lat="43.58115" lon="-1.05857">
        <ele>30.9</ele>
        <time>2022-04-03T07:54:52Z</time>
      </trkpt>
      <trkpt lat="43.58095" lon="-1.05864">
        <ele>31.38</ele>
        <time>2022-04-03T07:55:08Z</time>
      </trkpt>
      <trkpt lat="43.58077" lon="-1.05872">
        <ele>32.34</ele>
        <time>2022-04-03T07:55:24Z</time>
      </trkpt>
      <trkpt lat="43.58064" lon="-1.05878">
        <ele>30.9</ele>
        <time>2022-04-03T07:55:36Z</time>
      </trkpt>
      <trkpt lat="43.58043" lon="-1.05885">
        <ele>30.9</ele>
        <time>2022-04-03T07:55:53Z</time>
      </trkpt>
      <trkpt lat="43.5802" lon="-1.05895">
        <ele>30.9</ele>
        <time>2022-04-03T07:56:11Z</time>
      </trkpt>
      <trkpt lat="43.57999" lon="-1.05903">
        <ele>30.9</ele>
        <time>2022-04-03T07:56:28Z</time>
      </trkpt>
      <trkpt lat="43.5798" lon="-1.05908">
        <ele>32.82</ele>
        <time>2022-04-03T07:56:45Z</time>
      </trkpt>
      <trkpt lat="43.57962" lon="-1.05912">
        <ele>33.78</ele>
        <time>2022-04-03T07:57:02Z</time>
      </trkpt>
      <trkpt lat="43.57944" lon="-1.05918">
        <ele>34.26</ele>
        <time>2022-04-03T07:57:20Z</time>
      </trkpt>
      <trkpt lat="43.57919" lon="-1.05925">
        <ele>34.74</ele>
        <time>2022-04-03T07:57:42Z</time>
      </trkpt>
      <trkpt lat="43.57898" lon="-1.05932">
        <ele>35.71</ele>
        <time>2022-04-03T07:57:59Z</time>
      </trkpt>
      <trkpt lat="43.57878" lon="-1.05936">
        <ele>36.19</ele>
        <time>2022-04-03T07:58:15Z</time>
      </trkpt>
      <trkpt lat="43.5786" lon="-1.05943">
        <ele>34.74</ele>
        <time>2022-04-03T07:58:29Z</time>
      </trkpt>
      <trkpt lat="43.57845" lon="-1.05931">
        <ele>34.26</ele>
        <time>2022-04-03T07:58:49Z</time>
      </trkpt>
      <trkpt lat="43.57819" lon="-1.05937">
        <ele>33.78</ele>
        <time>2022-04-03T07:59:09Z</time>
      </trkpt>
      <trkpt lat="43.57807" lon="-1.05931">
        <ele>33.78</ele>
        <time>2022-04-03T07:59:24Z</time>
      </trkpt>
      <trkpt lat="43.57797" lon="-1.05924">
        <ele>33.78</ele>
        <time>2022-04-03T07:59:42Z</time>
      </trkpt>
      <trkpt lat="43.57779" lon="-1.05922">
        <ele>33.78</ele>
        <time>2022-04-03T08:00:00Z</time>
      </trkpt>
      <trkpt lat="43.57768" lon="-1.05921">
        <ele>33.78</ele>
        <time>2022-04-03T08:00:11Z</time>
      </trkpt>
      <trkpt lat="43.57765" lon="-1.0592">
        <ele>33.78</ele>
        <time>2022-04-03T08:00:14Z</time>
      </trkpt>
      <trkpt lat="43.57748" lon="-1.05918">
        <ele>33.78</ele>
        <time>2022-04-03T08:00:30Z</time>
      </trkpt>
      <trkpt lat="43.57732" lon="-1.05917">
        <ele>33.78</ele>
        <time>2022-04-03T08:00:45Z</time>
      </trkpt>
      <trkpt lat="43.57713" lon="-1.05923">
        <ele>33.78</ele>
        <time>2022-04-03T08:01:04Z</time>
      </trkpt>
      <trkpt lat="43.577" lon="-1.05932">
        <ele>35.23</ele>
        <time>2022-04-03T08:01:19Z</time>
      </trkpt>
      <trkpt lat="43.57682" lon="-1.05942">
        <ele>35.23</ele>
        <time>2022-04-03T08:01:37Z</time>
      </trkpt>
      <trkpt lat="43.57666" lon="-1.05949">
        <ele>36.19</ele>
        <time>2022-04-03T08:01:55Z</time>
      </trkpt>
      <trkpt lat="43.57653" lon="-1.05953">
        <ele>36.19</ele>
        <time>2022-04-03T08:02:10Z</time>
      </trkpt>
      <trkpt lat="43.57635" lon="-1.05962">
        <ele>36.67</ele>
        <time>2022-04-03T08:02:25Z</time>
      </trkpt>
      <trkpt lat="43.57631" lon="-1.05965">
        <ele>36.67</ele>
        <time>2022-04-03T08:02:29Z</time>
      </trkpt>
      <trkpt lat="43.57629" lon="-1.05967">
        <ele>36.67</ele>
        <time>2022-04-03T08:02:31Z</time>
      </trkpt>
      <trkpt lat="43.57607" lon="-1.05984">
        <ele>36.67</ele>
        <time>2022-04-03T08:02:51Z</time>
      </trkpt>
      <trkpt lat="43.57587" lon="-1.06">
        <ele>36.67</ele>
        <time>2022-04-03T08:03:11Z</time>
      </trkpt>
      <trkpt lat="43.57578" lon="-1.06005">
        <ele>36.67</ele>
        <time>2022-04-03T08:03:19Z</time>
      </trkpt>
      <trkpt lat="43.57571" lon="-1.06005">
        <ele>36.67</ele>
        <time>2022-04-03T08:03:24Z</time>
      </trkpt>
      <trkpt lat="43.57566" lon="-1.06001">
        <ele>36.67</ele>
        <time>2022-04-03T08:03:28Z</time>
      </trkpt>
      <trkpt lat="43.57561" lon="-1.05993">
        <ele>37.15</ele>
        <time>2022-04-03T08:03:35Z</time>
      </trkpt>
      <trkpt lat="43.5755" lon="-1.05964">
        <ele>37.15</ele>
        <time>2022-04-03T08:03:56Z</time>
      </trkpt>
      <trkpt lat="43.57535" lon="-1.05943">
        <ele>37.15</ele>
        <time>2022-04-03T08:04:14Z</time>
      </trkpt>
      <trkpt lat="43.57532" lon="-1.05944">
        <ele>37.15</ele>
        <time>2022-04-03T08:04:34Z</time>
      </trkpt>
      <trkpt lat="43.57531" lon="-1.05941">
        <ele>37.15</ele>
        <time>2022-04-03T08:05:01Z</time>
      </trkpt>
      <trkpt lat="43.57525" lon="-1.05941">
        <ele>37.15</ele>
        <time>2022-04-03T08:05:22Z</time>
      </trkpt>
      <trkpt lat="43.57512" lon="-1.0594">
        <ele>37.15</ele>
        <time>2022-04-03T08:05:39Z</time>
      </trkpt>
      <trkpt lat="43.57505" lon="-1.05938">
        <ele>37.15</ele>
        <time>2022-04-03T08:05:47Z</time>
      </trkpt>
      <trkpt lat="43.57492" lon="-1.05941">
        <ele>37.15</ele>
        <time>2022-04-03T08:06:03Z</time>
      </trkpt>
      <trkpt lat="43.57482" lon="-1.05945">
        <ele>37.15</ele>
        <time>2022-04-03T08:06:18Z</time>
      </trkpt>
      <trkpt lat="43.57467" lon="-1.0595">
        <ele>37.15</ele>
        <time>2022-04-03T08:06:36Z</time>
      </trkpt>
      <trkpt lat="43.57455" lon="-1.05957">
        <ele>37.15</ele>
        <time>2022-04-03T08:06:54Z</time>
      </trkpt>
      <trkpt lat="43.57448" lon="-1.0596">
        <ele>37.63</ele>
        <time>2022-04-03T08:07:08Z</time>
      </trkpt>
      <trkpt lat="43.57435" lon="-1.05962">
        <ele>38.11</ele>
        <time>2022-04-03T08:07:25Z</time>
      </trkpt>
      <trkpt lat="43.57428" lon="-1.05968">
        <ele>38.11</ele>
        <time>2022-04-03T08:07:40Z</time>
      </trkpt>
      <trkpt lat="43.57418" lon="-1.05972">
        <ele>38.59</ele>
        <time>2022-04-03T08:07:56Z</time>
      </trkpt>
      <trkpt lat="43.57407" lon="-1.05976">
        <ele>38.59</ele>
        <time>2022-04-03T08:08:12Z</time>
      </trkpt>
      <trkpt lat="43.57396" lon="-1.05979">
        <ele>39.07</ele>
        <time>2022-04-03T08:08:25Z</time>
      </trkpt>
      <trkpt lat="43.57378" lon="-1.05984">
        <ele>39.55</ele>
        <time>2022-04-03T08:08:43Z</time>
      </trkpt>
      <trkpt lat="43.57362" lon="-1.0599">
        <ele>40.03</ele>
        <time>2022-04-03T08:09:01Z</time>
      </trkpt>
      <trkpt lat="43.57344" lon="-1.05998">
        <ele>40.99</ele>
        <time>2022-04-03T08:09:20Z</time>
      </trkpt>
      <trkpt lat="43.57328" lon="-1.06005">
        <ele>40.99</ele>
        <time>2022-04-03T08:09:36Z</time>
      </trkpt>
      <trkpt lat="43.57314" lon="-1.0601">
        <ele>41.95</ele>
        <time>2022-04-03T08:09:53Z</time>
      </trkpt>
      <trkpt lat="43.57302" lon="-1.06017">
        <ele>41.95</ele>
        <time>2022-04-03T08:10:08Z</time>
      </trkpt>
      <trkpt lat="43.57284" lon="-1.06028">
        <ele>41.95</ele>
        <time>2022-04-03T08:10:27Z</time>
      </trkpt>
      <trkpt lat="43.57281" lon="-1.06029">
        <ele>41.95</ele>
        <time>2022-04-03T08:10:42Z</time>
      </trkpt>
      <trkpt lat="43.57266" lon="-1.0604">
        <ele>41.95</ele>
        <time>2022-04-03T08:10:59Z</time>
      </trkpt>
      <trkpt lat="43.5725" lon="-1.0605">
        <ele>42.92</ele>
        <time>2022-04-03T08:11:18Z</time>
      </trkpt>
      <trkpt lat="43.57234" lon="-1.06059">
        <ele>43.88</ele>
        <time>2022-04-03T08:11:35Z</time>
      </trkpt>
      <trkpt lat="43.57224" lon="-1.06064">
        <ele>43.88</ele>
        <time>2022-04-03T08:11:45Z</time>
      </trkpt>
      <trkpt lat="43.57219" lon="-1.06065">
        <ele>43.88</ele>
        <time>2022-04-03T08:12:00Z</time>
      </trkpt>
      <trkpt lat="43.57213" lon="-1.0607">
        <ele>43.88</ele>
        <time>2022-04-03T08:12:07Z</time>
      </trkpt>
      <trkpt lat="43.57209" lon="-1.06073">
        <ele>44.36</ele>
        <time>2022-04-03T08:12:11Z</time>
      </trkpt>
      <trkpt lat="43.57192" lon="-1.06086">
        <ele>45.32</ele>
        <time>2022-04-03T08:12:31Z</time>
      </trkpt>
      <trkpt lat="43.57192" lon="-1.06084">
        <ele>45.32</ele>
        <time>2022-04-03T08:12:58Z</time>
      </trkpt>
      <trkpt lat="43.57192" lon="-1.06084">
        <ele>45.32</ele>
        <time>2022-04-03T08:13:14Z</time>
      </trkpt>
      <trkpt lat="43.57192" lon="-1.06082">
        <ele>45.32</ele>
        <time>2022-04-03T08:13:40Z</time>
      </trkpt>
      <trkpt lat="43.57191" lon="-1.06085">
        <ele>44.84</ele>
        <time>2022-04-03T08:13:47Z</time>
      </trkpt>
      <trkpt lat="43.57186" lon="-1.06088">
        <ele>44.84</ele>
        <time>2022-04-03T08:13:52Z</time>
      </trkpt>
      <trkpt lat="43.57176" lon="-1.06094">
        <ele>46.28</ele>
        <time>2022-04-03T08:14:01Z</time>
      </trkpt>
      <trkpt lat="43.57151" lon="-1.06107">
        <ele>46.76</ele>
        <time>2022-04-03T08:14:21Z</time>
      </trkpt>
      <trkpt lat="43.57133" lon="-1.06115">
        <ele>47.72</ele>
        <time>2022-04-03T08:14:37Z</time>
      </trkpt>
      <trkpt lat="43.57118" lon="-1.06119">
        <ele>48.68</ele>
        <time>2022-04-03T08:14:51Z</time>
      </trkpt>
      <trkpt lat="43.57116" lon="-1.06121">
        <ele>48.68</ele>
        <time>2022-04-03T08:14:54Z</time>
      </trkpt>
      <trkpt lat="43.57114" lon="-1.06122">
        <ele>48.68</ele>
        <time>2022-04-03T08:14:56Z</time>
      </trkpt>
      <trkpt lat="43.57096" lon="-1.06128">
        <ele>49.65</ele>
        <time>2022-04-03T08:15:12Z</time>
      </trkpt>
      <trkpt lat="43.57095" lon="-1.06128">
        <ele>49.65</ele>
        <time>2022-04-03T08:15:13Z</time>
      </trkpt>
      <trkpt lat="43.57093" lon="-1.06129">
        <ele>49.65</ele>
        <time>2022-04-03T08:15:15Z</time>
      </trkpt>
      <trkpt lat="43.57084" lon="-1.06131">
        <ele>50.13</ele>
        <time>2022-04-03T08:15:25Z</time>
      </trkpt>
      <trkpt lat="43.57078" lon="-1.06132">
        <ele>50.13</ele>
        <time>2022-04-03T08:15:30Z</time>
      </trkpt>
      <trkpt lat="43.57055" lon="-1.06133">
        <ele>50.61</ele>
        <time>2022-04-03T08:15:46Z</time>
      </trkpt>
      <trkpt lat="43.57044" lon="-1.06141">
        <ele>51.57</ele>
        <time>2022-04-03T08:15:59Z</time>
      </trkpt>
      <trkpt lat="43.57023" lon="-1.06149">
        <ele>52.53</ele>
        <time>2022-04-03T08:16:17Z</time>
      </trkpt>
      <trkpt lat="43.57017" lon="-1.06151">
        <ele>53.49</ele>
        <time>2022-04-03T08:16:22Z</time>
      </trkpt>
      <trkpt lat="43.57009" lon="-1.06151">
        <ele>53.49</ele>
        <time>2022-04-03T08:16:29Z</time>
      </trkpt>
      <trkpt lat="43.56991" lon="-1.06158">
        <ele>53.97</ele>
        <time>2022-04-03T08:16:44Z</time>
      </trkpt>
      <trkpt lat="43.56981" lon="-1.06161">
        <ele>54.93</ele>
        <time>2022-04-03T08:16:58Z</time>
      </trkpt>
      <trkpt lat="43.56963" lon="-1.06161">
        <ele>55.89</ele>
        <time>2022-04-03T08:17:13Z</time>
      </trkpt>
      <trkpt lat="43.5694" lon="-1.06161">
        <ele>56.37</ele>
        <time>2022-04-03T08:17:28Z</time>
      </trkpt>
      <trkpt lat="43.56933" lon="-1.06163">
        <ele>56.86</ele>
        <time>2022-04-03T08:17:35Z</time>
      </trkpt>
      <trkpt lat="43.56926" lon="-1.06163">
        <ele>57.34</ele>
        <time>2022-04-03T08:17:40Z</time>
      </trkpt>
      <trkpt lat="43.56902" lon="-1.06167">
        <ele>58.3</ele>
        <time>2022-04-03T08:17:57Z</time>
      </trkpt>
      <trkpt lat="43.56882" lon="-1.06172">
        <ele>58.78</ele>
        <time>2022-04-03T08:18:13Z</time>
      </trkpt>
      <trkpt lat="43.56869" lon="-1.06182">
        <ele>59.74</ele>
        <time>2022-04-03T08:18:29Z</time>
      </trkpt>
      <trkpt lat="43.56864" lon="-1.06186">
        <ele>60.22</ele>
        <time>2022-04-03T08:18:36Z</time>
      </trkpt>
      <trkpt lat="43.5686" lon="-1.06188">
        <ele>60.22</ele>
        <time>2022-04-03T08:18:40Z</time>
      </trkpt>
      <trkpt lat="43.56854" lon="-1.06189">
        <ele>61.18</ele>
        <time>2022-04-03T08:18:46Z</time>
      </trkpt>
      <trkpt lat="43.56845" lon="-1.06207">
        <ele>61.66</ele>
        <time>2022-04-03T08:19:01Z</time>
      </trkpt>
      <trkpt lat="43.56839" lon="-1.06218">
        <ele>62.62</ele>
        <time>2022-04-03T08:19:14Z</time>
      </trkpt>
      <trkpt lat="43.56838" lon="-1.06235">
        <ele>62.62</ele>
        <time>2022-04-03T08:19:27Z</time>
      </trkpt>
      <trkpt lat="43.56824" lon="-1.06241">
        <ele>63.1</ele>
        <time>2022-04-03T08:19:45Z</time>
      </trkpt>
      <trkpt lat="43.56804" lon="-1.06243">
        <ele>64.55</ele>
        <time>2022-04-03T08:19:57Z</time>
      </trkpt>
      <trkpt lat="43.56788" lon="-1.0625">
        <ele>65.03</ele>
        <time>2022-04-03T08:20:10Z</time>
      </trkpt>
      <trkpt lat="43.56782" lon="-1.06259">
        <ele>65.03</ele>
        <time>2022-04-03T08:20:23Z</time>
      </trkpt>
      <trkpt lat="43.56774" lon="-1.06271">
        <ele>65.51</ele>
        <time>2022-04-03T08:20:39Z</time>
      </trkpt>
      <trkpt lat="43.56765" lon="-1.06284">
        <ele>66.47</ele>
        <time>2022-04-03T08:20:53Z</time>
      </trkpt>
      <trkpt lat="43.56755" lon="-1.06287">
        <ele>67.43</ele>
        <time>2022-04-03T08:21:06Z</time>
      </trkpt>
      <trkpt lat="43.56748" lon="-1.06295">
        <ele>67.91</ele>
        <time>2022-04-03T08:21:20Z</time>
      </trkpt>
      <trkpt lat="43.56734" lon="-1.06298">
        <ele>68.39</ele>
        <time>2022-04-03T08:21:32Z</time>
      </trkpt>
      <trkpt lat="43.56724" lon="-1.06295">
        <ele>68.39</ele>
        <time>2022-04-03T08:21:36Z</time>
      </trkpt>
      <trkpt lat="43.56706" lon="-1.06307">
        <ele>68.87</ele>
        <time>2022-04-03T08:21:49Z</time>
      </trkpt>
      <trkpt lat="43.56696" lon="-1.06314">
        <ele>69.35</ele>
        <time>2022-04-03T08:22:02Z</time>
      </trkpt>
      <trkpt lat="43.56683" lon="-1.06316">
        <ele>69.83</ele>
        <time>2022-04-03T08:22:16Z</time>
      </trkpt>
      <trkpt lat="43.56676" lon="-1.06318">
        <ele>70.31</ele>
        <time>2022-04-03T08:22:29Z</time>
      </trkpt>
      <trkpt lat="43.56665" lon="-1.06318">
        <ele>70.79</ele>
        <time>2022-04-03T08:22:45Z</time>
      </trkpt>
      <trkpt lat="43.56658" lon="-1.06319">
        <ele>70.79</ele>
        <time>2022-04-03T08:22:55Z</time>
      </trkpt>
      <trkpt lat="43.56651" lon="-1.06322">
        <ele>71.27</ele>
        <time>2022-04-03T08:23:08Z</time>
      </trkpt>
      <trkpt lat="43.56639" lon="-1.06326">
        <ele>71.76</ele>
        <time>2022-04-03T08:23:23Z</time>
      </trkpt>
      <trkpt lat="43.56625" lon="-1.06329">
        <ele>72.24</ele>
        <time>2022-04-03T08:23:39Z</time>
      </trkpt>
      <trkpt lat="43.56613" lon="-1.06329">
        <ele>72.72</ele>
        <time>2022-04-03T08:23:53Z</time>
      </trkpt>
      <trkpt lat="43.56601" lon="-1.06333">
        <ele>73.68</ele>
        <time>2022-04-03T08:24:06Z</time>
      </trkpt>
      <trkpt lat="43.56588" lon="-1.06335">
        <ele>74.64</ele>
        <time>2022-04-03T08:24:20Z</time>
      </trkpt>
      <trkpt lat="43.56575" lon="-1.0634">
        <ele>75.12</ele>
        <time>2022-04-03T08:24:35Z</time>
      </trkpt>
      <trkpt lat="43.56548" lon="-1.06324">
        <ele>79.93</ele>
        <time>2022-04-03T08:45:49Z</time>
      </trkpt>
      <trkpt lat="43.56552" lon="-1.06303">
        <ele>80.89</ele>
        <time>2022-04-03T08:46:06Z</time>
      </trkpt>
      <trkpt lat="43.56562" lon="-1.06284">
        <ele>81.37</ele>
        <time>2022-04-03T08:46:24Z</time>
      </trkpt>
      <trkpt lat="43.56572" lon="-1.06268">
        <ele>81.37</ele>
        <time>2022-04-03T08:46:38Z</time>
      </trkpt>
      <trkpt lat="43.56579" lon="-1.06261">
        <ele>81.85</ele>
        <time>2022-04-03T08:46:54Z</time>
      </trkpt>
      <trkpt lat="43.56578" lon="-1.06254">
        <ele>83.29</ele>
        <time>2022-04-03T08:47:11Z</time>
      </trkpt>
      <trkpt lat="43.56573" lon="-1.06237">
        <ele>85.21</ele>
        <time>2022-04-03T08:47:26Z</time>
      </trkpt>
      <trkpt lat="43.56568" lon="-1.0623">
        <ele>86.66</ele>
        <time>2022-04-03T08:47:39Z</time>
      </trkpt>
      <trkpt lat="43.56569" lon="-1.06223">
        <ele>87.14</ele>
        <time>2022-04-03T08:47:57Z</time>
      </trkpt>
      <trkpt lat="43.56569" lon="-1.06222">
        <ele>87.14</ele>
        <time>2022-04-03T08:47:58Z</time>
      </trkpt>
      <trkpt lat="43.56565" lon="-1.06222">
        <ele>87.14</ele>
        <time>2022-04-03T08:48:02Z</time>
      </trkpt>
      <trkpt lat="43.56549" lon="-1.06231">
        <ele>87.14</ele>
        <time>2022-04-03T08:48:20Z</time>
      </trkpt>
      <trkpt lat="43.56546" lon="-1.06233">
        <ele>87.14</ele>
        <time>2022-04-03T08:48:23Z</time>
      </trkpt>
      <trkpt lat="43.5653" lon="-1.06244">
        <ele>87.14</ele>
        <time>2022-04-03T08:48:40Z</time>
      </trkpt>
      <trkpt lat="43.56509" lon="-1.06244">
        <ele>88.1</ele>
        <time>2022-04-03T08:48:58Z</time>
      </trkpt>
      <trkpt lat="43.56489" lon="-1.06245">
        <ele>89.06</ele>
        <time>2022-04-03T08:49:14Z</time>
      </trkpt>
      <trkpt lat="43.56472" lon="-1.0624">
        <ele>90.5</ele>
        <time>2022-04-03T08:49:33Z</time>
      </trkpt>
      <trkpt lat="43.56457" lon="-1.06235">
        <ele>91.94</ele>
        <time>2022-04-03T08:49:50Z</time>
      </trkpt>
      <trkpt lat="43.56441" lon="-1.06231">
        <ele>93.39</ele>
        <time>2022-04-03T08:50:06Z</time>
      </trkpt>
      <trkpt lat="43.56423" lon="-1.06223">
        <ele>93.87</ele>
        <time>2022-04-03T08:50:20Z</time>
      </trkpt>
      <trkpt lat="43.56412" lon="-1.06203">
        <ele>94.83</ele>
        <time>2022-04-03T08:50:38Z</time>
      </trkpt>
      <trkpt lat="43.56406" lon="-1.06182">
        <ele>95.31</ele>
        <time>2022-04-03T08:50:54Z</time>
      </trkpt>
      <trkpt lat="43.56399" lon="-1.06155">
        <ele>95.31</ele>
        <time>2022-04-03T08:51:12Z</time>
      </trkpt>
      <trkpt lat="43.56393" lon="-1.06132">
        <ele>95.31</ele>
        <time>2022-04-03T08:51:30Z</time>
      </trkpt>
      <trkpt lat="43.56386" lon="-1.0611">
        <ele>94.35</ele>
        <time>2022-04-03T08:51:48Z</time>
      </trkpt>
      <trkpt lat="43.56384" lon="-1.06102">
        <ele>94.35</ele>
        <time>2022-04-03T08:51:54Z</time>
      </trkpt>
      <trkpt lat="43.56375" lon="-1.06088">
        <ele>94.35</ele>
        <time>2022-04-03T08:52:07Z</time>
      </trkpt>
      <trkpt lat="43.56365" lon="-1.06065">
        <ele>93.87</ele>
        <time>2022-04-03T08:52:24Z</time>
      </trkpt>
      <trkpt lat="43.56357" lon="-1.06049">
        <ele>92.9</ele>
        <time>2022-04-03T08:52:38Z</time>
      </trkpt>
      <trkpt lat="43.56347" lon="-1.06028">
        <ele>92.42</ele>
        <time>2022-04-03T08:52:57Z</time>
      </trkpt>
      <trkpt lat="43.56339" lon="-1.06014">
        <ele>90.98</ele>
        <time>2022-04-03T08:53:13Z</time>
      </trkpt>
      <trkpt lat="43.5633" lon="-1.06007">
        <ele>90.02</ele>
        <time>2022-04-03T08:53:26Z</time>
      </trkpt>
      <trkpt lat="43.56318" lon="-1.05993">
        <ele>88.58</ele>
        <time>2022-04-03T08:53:41Z</time>
      </trkpt>
      <trkpt lat="43.56308" lon="-1.05978">
        <ele>87.14</ele>
        <time>2022-04-03T08:53:57Z</time>
      </trkpt>
      <trkpt lat="43.56301" lon="-1.05966">
        <ele>86.18</ele>
        <time>2022-04-03T08:54:16Z</time>
      </trkpt>
      <trkpt lat="43.56289" lon="-1.05954">
        <ele>84.25</ele>
        <time>2022-04-03T08:54:32Z</time>
      </trkpt>
      <trkpt lat="43.56272" lon="-1.05938">
        <ele>82.81</ele>
        <time>2022-04-03T08:54:51Z</time>
      </trkpt>
      <trkpt lat="43.56257" lon="-1.05924">
        <ele>81.37</ele>
        <time>2022-04-03T08:55:07Z</time>
      </trkpt>
      <trkpt lat="43.56255" lon="-1.05917">
        <ele>80.89</ele>
        <time>2022-04-03T08:55:12Z</time>
      </trkpt>
      <trkpt lat="43.56265" lon="-1.05897">
        <ele>79.93</ele>
        <time>2022-04-03T08:55:28Z</time>
      </trkpt>
      <trkpt lat="43.5628" lon="-1.05878">
        <ele>78.97</ele>
        <time>2022-04-03T08:55:46Z</time>
      </trkpt>
      <trkpt lat="43.56291" lon="-1.05872">
        <ele>78</ele>
        <time>2022-04-03T08:55:56Z</time>
      </trkpt>
      <trkpt lat="43.5631" lon="-1.05859">
        <ele>77.52</ele>
        <time>2022-04-03T08:56:15Z</time>
      </trkpt>
      <trkpt lat="43.56323" lon="-1.05845">
        <ele>77.52</ele>
        <time>2022-04-03T08:56:31Z</time>
      </trkpt>
      <trkpt lat="43.56334" lon="-1.05826">
        <ele>77.52</ele>
        <time>2022-04-03T08:56:48Z</time>
      </trkpt>
      <trkpt lat="43.56341" lon="-1.05803">
        <ele>77.52</ele>
        <time>2022-04-03T08:57:04Z</time>
      </trkpt>
      <trkpt lat="43.56347" lon="-1.05786">
        <ele>77.52</ele>
        <time>2022-04-03T08:57:17Z</time>
      </trkpt>
      <trkpt lat="43.56349" lon="-1.05768">
        <ele>77.04</ele>
        <time>2022-04-03T08:57:31Z</time>
      </trkpt>
      <trkpt lat="43.56354" lon="-1.05743">
        <ele>76.56</ele>
        <time>2022-04-03T08:57:48Z</time>
      </trkpt>
      <trkpt lat="43.56355" lon="-1.05717">
        <ele>75.6</ele>
        <time>2022-04-03T08:58:05Z</time>
      </trkpt>
      <trkpt lat="43.56357" lon="-1.05697">
        <ele>75.12</ele>
        <time>2022-04-03T08:58:17Z</time>
      </trkpt>
      <trkpt lat="43.56357" lon="-1.05691">
        <ele>75.12</ele>
        <time>2022-04-03T08:58:21Z</time>
      </trkpt>
      <trkpt lat="43.56359" lon="-1.05663">
        <ele>74.16</ele>
        <time>2022-04-03T08:58:39Z</time>
      </trkpt>
      <trkpt lat="43.56363" lon="-1.05628">
        <ele>73.2</ele>
        <time>2022-04-03T08:58:59Z</time>
      </trkpt>
      <trkpt lat="43.56366" lon="-1.05591">
        <ele>73.2</ele>
        <time>2022-04-03T08:59:22Z</time>
      </trkpt>
      <trkpt lat="43.56368" lon="-1.05562">
        <ele>72.24</ele>
        <time>2022-04-03T08:59:40Z</time>
      </trkpt>
      <trkpt lat="43.5637" lon="-1.05539">
        <ele>72.24</ele>
        <time>2022-04-03T08:59:55Z</time>
      </trkpt>
      <trkpt lat="43.56373" lon="-1.05522">
        <ele>72.24</ele>
        <time>2022-04-03T09:00:06Z</time>
      </trkpt>
      <trkpt lat="43.56373" lon="-1.05513">
        <ele>72.24</ele>
        <time>2022-04-03T09:00:12Z</time>
      </trkpt>
      <trkpt lat="43.56376" lon="-1.05496">
        <ele>72.24</ele>
        <time>2022-04-03T09:00:24Z</time>
      </trkpt>
      <trkpt lat="43.56377" lon="-1.05489">
        <ele>72.24</ele>
        <time>2022-04-03T09:00:29Z</time>
      </trkpt>
      <trkpt lat="43.56384" lon="-1.05463">
        <ele>71.27</ele>
        <time>2022-04-03T09:00:46Z</time>
      </trkpt>
      <trkpt lat="43.56388" lon="-1.0544">
        <ele>69.83</ele>
        <time>2022-04-03T09:01:02Z</time>
      </trkpt>
      <trkpt lat="43.56393" lon="-1.05416">
        <ele>69.35</ele>
        <time>2022-04-03T09:01:18Z</time>
      </trkpt>
      <trkpt lat="43.56399" lon="-1.0539">
        <ele>69.35</ele>
        <time>2022-04-03T09:01:34Z</time>
      </trkpt>
      <trkpt lat="43.56408" lon="-1.05362">
        <ele>69.83</ele>
        <time>2022-04-03T09:01:52Z</time>
      </trkpt>
      <trkpt lat="43.56416" lon="-1.05333">
        <ele>69.83</ele>
        <time>2022-04-03T09:02:11Z</time>
      </trkpt>
      <trkpt lat="43.56423" lon="-1.05308">
        <ele>69.83</ele>
        <time>2022-04-03T09:02:28Z</time>
      </trkpt>
      <trkpt lat="43.56429" lon="-1.0528">
        <ele>69.83</ele>
        <time>2022-04-03T09:02:45Z</time>
      </trkpt>
      <trkpt lat="43.56429" lon="-1.05277">
        <ele>69.83</ele>
        <time>2022-04-03T09:02:47Z</time>
      </trkpt>
      <trkpt lat="43.56431" lon="-1.05261">
        <ele>70.79</ele>
        <time>2022-04-03T09:02:57Z</time>
      </trkpt>
      <trkpt lat="43.56431" lon="-1.05258">
        <ele>70.79</ele>
        <time>2022-04-03T09:02:59Z</time>
      </trkpt>
      <trkpt lat="43.56434" lon="-1.05236">
        <ele>71.27</ele>
        <time>2022-04-03T09:03:14Z</time>
      </trkpt>
      <trkpt lat="43.56437" lon="-1.05212">
        <ele>71.27</ele>
        <time>2022-04-03T09:03:30Z</time>
      </trkpt>
      <trkpt lat="43.56436" lon="-1.05189">
        <ele>69.83</ele>
        <time>2022-04-03T09:03:45Z</time>
      </trkpt>
      <trkpt lat="43.56437" lon="-1.05177">
        <ele>69.83</ele>
        <time>2022-04-03T09:03:54Z</time>
      </trkpt>
      <trkpt lat="43.56437" lon="-1.05164">
        <ele>69.35</ele>
        <time>2022-04-03T09:04:02Z</time>
      </trkpt>
      <trkpt lat="43.5644" lon="-1.05152">
        <ele>69.35</ele>
        <time>2022-04-03T09:04:10Z</time>
      </trkpt>
      <trkpt lat="43.56443" lon="-1.05125">
        <ele>68.39</ele>
        <time>2022-04-03T09:04:28Z</time>
      </trkpt>
      <trkpt lat="43.56444" lon="-1.05119">
        <ele>68.39</ele>
        <time>2022-04-03T09:04:32Z</time>
      </trkpt>
      <trkpt lat="43.56445" lon="-1.05097">
        <ele>67.91</ele>
        <time>2022-04-03T09:04:45Z</time>
      </trkpt>
      <trkpt lat="43.56449" lon="-1.05089">
        <ele>66.95</ele>
        <time>2022-04-03T09:05:00Z</time>
      </trkpt>
      <trkpt lat="43.5645" lon="-1.05065">
        <ele>65.51</ele>
        <time>2022-04-03T09:05:16Z</time>
      </trkpt>
      <trkpt lat="43.56448" lon="-1.05048">
        <ele>65.03</ele>
        <time>2022-04-03T09:05:29Z</time>
      </trkpt>
      <trkpt lat="43.56446" lon="-1.0504">
        <ele>64.55</ele>
        <time>2022-04-03T09:05:35Z</time>
      </trkpt>
      <trkpt lat="43.56439" lon="-1.05011">
        <ele>63.1</ele>
        <time>2022-04-03T09:05:55Z</time>
      </trkpt>
      <trkpt lat="43.56433" lon="-1.04991">
        <ele>62.62</ele>
        <time>2022-04-03T09:06:10Z</time>
      </trkpt>
      <trkpt lat="43.56427" lon="-1.04968">
        <ele>61.66</ele>
        <time>2022-04-03T09:06:26Z</time>
      </trkpt>
      <trkpt lat="43.56419" lon="-1.0494">
        <ele>61.66</ele>
        <time>2022-04-03T09:06:46Z</time>
      </trkpt>
      <trkpt lat="43.56412" lon="-1.04916">
        <ele>61.66</ele>
        <time>2022-04-03T09:07:02Z</time>
      </trkpt>
      <trkpt lat="43.5641" lon="-1.04892">
        <ele>61.18</ele>
        <time>2022-04-03T09:07:18Z</time>
      </trkpt>
      <trkpt lat="43.56412" lon="-1.04869">
        <ele>60.22</ele>
        <time>2022-04-03T09:07:31Z</time>
      </trkpt>
      <trkpt lat="43.56416" lon="-1.04844">
        <ele>59.26</ele>
        <time>2022-04-03T09:07:45Z</time>
      </trkpt>
      <trkpt lat="43.5642" lon="-1.04823">
        <ele>57.82</ele>
        <time>2022-04-03T09:07:59Z</time>
      </trkpt>
      <trkpt lat="43.56423" lon="-1.04818">
        <ele>56.86</ele>
        <time>2022-04-03T09:08:04Z</time>
      </trkpt>
      <trkpt lat="43.56429" lon="-1.04798">
        <ele>54.93</ele>
        <time>2022-04-03T09:08:21Z</time>
      </trkpt>
      <trkpt lat="43.56433" lon="-1.04789">
        <ele>54.45</ele>
        <time>2022-04-03T09:08:28Z</time>
      </trkpt>
      <trkpt lat="43.56435" lon="-1.04787">
        <ele>54.45</ele>
        <time>2022-04-03T09:08:30Z</time>
      </trkpt>
      <trkpt lat="43.56438" lon="-1.04777">
        <ele>53.01</ele>
        <time>2022-04-03T09:08:47Z</time>
      </trkpt>
      <trkpt lat="43.56438" lon="-1.04777">
        <ele>53.97</ele>
        <time>2022-04-03T09:09:11Z</time>
      </trkpt>
      <trkpt lat="43.56439" lon="-1.04773">
        <ele>52.53</ele>
        <time>2022-04-03T09:09:25Z</time>
      </trkpt>
      <trkpt lat="43.56441" lon="-1.04771">
        <ele>53.97</ele>
        <time>2022-04-03T09:09:27Z</time>
      </trkpt>
      <trkpt lat="43.56447" lon="-1.04753">
        <ele>52.53</ele>
        <time>2022-04-03T09:09:40Z</time>
      </trkpt>
      <trkpt lat="43.56453" lon="-1.04721">
        <ele>51.57</ele>
        <time>2022-04-03T09:10:01Z</time>
      </trkpt>
      <trkpt lat="43.56454" lon="-1.04695">
        <ele>51.09</ele>
        <time>2022-04-03T09:10:18Z</time>
      </trkpt>
      <trkpt lat="43.56453" lon="-1.04688">
        <ele>50.61</ele>
        <time>2022-04-03T09:10:22Z</time>
      </trkpt>
      <trkpt lat="43.56454" lon="-1.04681">
        <ele>50.61</ele>
        <time>2022-04-03T09:10:27Z</time>
      </trkpt>
      <trkpt lat="43.5646" lon="-1.04649">
        <ele>49.65</ele>
        <time>2022-04-03T09:10:48Z</time>
      </trkpt>
      <trkpt lat="43.56464" lon="-1.04623">
        <ele>49.16</ele>
        <time>2022-04-03T09:11:05Z</time>
      </trkpt>
      <trkpt lat="43.5647" lon="-1.04598">
        <ele>48.2</ele>
        <time>2022-04-03T09:11:21Z</time>
      </trkpt>
      <trkpt lat="43.56471" lon="-1.04595">
        <ele>48.2</ele>
        <time>2022-04-03T09:11:23Z</time>
      </trkpt>
      <trkpt lat="43.56478" lon="-1.04571">
        <ele>47.24</ele>
        <time>2022-04-03T09:11:40Z</time>
      </trkpt>
      <trkpt lat="43.56482" lon="-1.04553">
        <ele>46.76</ele>
        <time>2022-04-03T09:11:52Z</time>
      </trkpt>
      <trkpt lat="43.56489" lon="-1.04524">
        <ele>45.32</ele>
        <time>2022-04-03T09:12:11Z</time>
      </trkpt>
      <trkpt lat="43.56495" lon="-1.04496">
        <ele>44.84</ele>
        <time>2022-04-03T09:12:29Z</time>
      </trkpt>
      <trkpt lat="43.56495" lon="-1.04492">
        <ele>44.84</ele>
        <time>2022-04-03T09:12:31Z</time>
      </trkpt>
      <trkpt lat="43.56502" lon="-1.04468">
        <ele>44.84</ele>
        <time>2022-04-03T09:12:49Z</time>
      </trkpt>
      <trkpt lat="43.56503" lon="-1.04468">
        <ele>44.84</ele>
        <time>2022-04-03T09:13:02Z</time>
      </trkpt>
      <trkpt lat="43.56506" lon="-1.04463">
        <ele>44.36</ele>
        <time>2022-04-03T09:13:10Z</time>
      </trkpt>
      <trkpt lat="43.56514" lon="-1.04437">
        <ele>44.36</ele>
        <time>2022-04-03T09:13:29Z</time>
      </trkpt>
      <trkpt lat="43.56522" lon="-1.04412">
        <ele>44.36</ele>
        <time>2022-04-03T09:13:47Z</time>
      </trkpt>
      <trkpt lat="43.56532" lon="-1.04388">
        <ele>43.88</ele>
        <time>2022-04-03T09:14:05Z</time>
      </trkpt>
      <trkpt lat="43.56537" lon="-1.04362">
        <ele>43.88</ele>
        <time>2022-04-03T09:14:23Z</time>
      </trkpt>
      <trkpt lat="43.56534" lon="-1.04345">
        <ele>40.03</ele>
        <time>2022-04-03T09:14:37Z</time>
      </trkpt>
      <trkpt lat="43.56533" lon="-1.04344">
        <ele>45.32</ele>
        <time>2022-04-03T09:14:38Z</time>
      </trkpt>
      <trkpt lat="43.56528" lon="-1.04339">
        <ele>42.92</ele>
        <time>2022-04-03T09:14:45Z</time>
      </trkpt>
      <trkpt lat="43.56508" lon="-1.04334">
        <ele>42.92</ele>
        <time>2022-04-03T09:15:03Z</time>
      </trkpt>
      <trkpt lat="43.56492" lon="-1.04327">
        <ele>42.92</ele>
        <time>2022-04-03T09:15:18Z</time>
      </trkpt>
      <trkpt lat="43.56482" lon="-1.04327">
        <ele>42.92</ele>
        <time>2022-04-03T09:15:27Z</time>
      </trkpt>
      <trkpt lat="43.56463" lon="-1.04317">
        <ele>41.95</ele>
        <time>2022-04-03T09:15:45Z</time>
      </trkpt>
      <trkpt lat="43.56445" lon="-1.04314">
        <ele>40.99</ele>
        <time>2022-04-03T09:16:02Z</time>
      </trkpt>
      <trkpt lat="43.56428" lon="-1.04303">
        <ele>40.51</ele>
        <time>2022-04-03T09:16:19Z</time>
      </trkpt>
      <trkpt lat="43.56419" lon="-1.0428">
        <ele>40.03</ele>
        <time>2022-04-03T09:16:35Z</time>
      </trkpt>
      <trkpt lat="43.56413" lon="-1.04251">
        <ele>39.55</ele>
        <time>2022-04-03T09:16:54Z</time>
      </trkpt>
      <trkpt lat="43.56409" lon="-1.04242">
        <ele>39.07</ele>
        <time>2022-04-03T09:17:10Z</time>
      </trkpt>
      <trkpt lat="43.56409" lon="-1.0424">
        <ele>39.55</ele>
        <time>2022-04-03T09:17:17Z</time>
      </trkpt>
      <trkpt lat="43.5641" lon="-1.04241">
        <ele>38.59</ele>
        <time>2022-04-03T09:17:38Z</time>
      </trkpt>
      <trkpt lat="43.56409" lon="-1.04237">
        <ele>39.55</ele>
        <time>2022-04-03T09:17:44Z</time>
      </trkpt>
      <trkpt lat="43.56402" lon="-1.04212">
        <ele>39.07</ele>
        <time>2022-04-03T09:18:03Z</time>
      </trkpt>
      <trkpt lat="43.56401" lon="-1.04205">
        <ele>37.63</ele>
        <time>2022-04-03T09:18:08Z</time>
      </trkpt>
      <trkpt lat="43.56392" lon="-1.04173">
        <ele>36.19</ele>
        <time>2022-04-03T09:18:30Z</time>
      </trkpt>
      <trkpt lat="43.56392" lon="-1.04169">
        <ele>35.71</ele>
        <time>2022-04-03T09:18:33Z</time>
      </trkpt>
      <trkpt lat="43.56386" lon="-1.04149">
        <ele>34.74</ele>
        <time>2022-04-03T09:18:48Z</time>
      </trkpt>
      <trkpt lat="43.56379" lon="-1.04129">
        <ele>32.82</ele>
        <time>2022-04-03T09:19:05Z</time>
      </trkpt>
      <trkpt lat="43.56372" lon="-1.04105">
        <ele>29.94</ele>
        <time>2022-04-03T09:19:24Z</time>
      </trkpt>
      <trkpt lat="43.56366" lon="-1.0408">
        <ele>28.5</ele>
        <time>2022-04-03T09:19:42Z</time>
      </trkpt>
      <trkpt lat="43.56366" lon="-1.04079">
        <ele>28.02</ele>
        <time>2022-04-03T09:19:43Z</time>
      </trkpt>
      <trkpt lat="43.56364" lon="-1.04071">
        <ele>27.53</ele>
        <time>2022-04-03T09:19:49Z</time>
      </trkpt>
      <trkpt lat="43.56363" lon="-1.04066">
        <ele>27.53</ele>
        <time>2022-04-03T09:19:53Z</time>
      </trkpt>
      <trkpt lat="43.56362" lon="-1.04064">
        <ele>26.57</ele>
        <time>2022-04-03T09:19:55Z</time>
      </trkpt>
      <trkpt lat="43.56359" lon="-1.04057">
        <ele>26.09</ele>
        <time>2022-04-03T09:20:01Z</time>
      </trkpt>
      <trkpt lat="43.56353" lon="-1.04037">
        <ele>23.69</ele>
        <time>2022-04-03T09:20:18Z</time>
      </trkpt>
      <trkpt lat="43.56351" lon="-1.0403">
        <ele>22.73</ele>
        <time>2022-04-03T09:20:23Z</time>
      </trkpt>
      <trkpt lat="43.56348" lon="-1.04023">
        <ele>24.17</ele>
        <time>2022-04-03T09:20:29Z</time>
      </trkpt>
      <trkpt lat="43.56347" lon="-1.0402">
        <ele>22.73</ele>
        <time>2022-04-03T09:20:32Z</time>
      </trkpt>
      <trkpt lat="43.56346" lon="-1.04015">
        <ele>22.73</ele>
        <time>2022-04-03T09:20:35Z</time>
      </trkpt>
      <trkpt lat="43.5634" lon="-1.03985">
        <ele>21.77</ele>
        <time>2022-04-03T09:20:55Z</time>
      </trkpt>
      <trkpt lat="43.56333" lon="-1.0396">
        <ele>21.29</ele>
        <time>2022-04-03T09:21:12Z</time>
      </trkpt>
      <trkpt lat="43.56333" lon="-1.03958">
        <ele>21.29</ele>
        <time>2022-04-03T09:21:13Z</time>
      </trkpt>
      <trkpt lat="43.56314" lon="-1.03958">
        <ele>21.29</ele>
        <time>2022-04-03T09:21:29Z</time>
      </trkpt>
      <trkpt lat="43.56295" lon="-1.03964">
        <ele>21.29</ele>
        <time>2022-04-03T09:21:47Z</time>
      </trkpt>
      <trkpt lat="43.56276" lon="-1.03976">
        <ele>21.29</ele>
        <time>2022-04-03T09:22:04Z</time>
      </trkpt>
      <trkpt lat="43.56258" lon="-1.03986">
        <ele>21.29</ele>
        <time>2022-04-03T09:22:22Z</time>
      </trkpt>
      <trkpt lat="43.56241" lon="-1.03996">
        <ele>21.29</ele>
        <time>2022-04-03T09:22:39Z</time>
      </trkpt>
      <trkpt lat="43.56222" lon="-1.04005">
        <ele>20.81</ele>
        <time>2022-04-03T09:22:56Z</time>
      </trkpt>
      <trkpt lat="43.56212" lon="-1.0401">
        <ele>22.25</ele>
        <time>2022-04-03T09:23:05Z</time>
      </trkpt>
      <trkpt lat="43.56206" lon="-1.0401">
        <ele>20.81</ele>
        <time>2022-04-03T09:23:16Z</time>
      </trkpt>
      <trkpt lat="43.56191" lon="-1.04013">
        <ele>20.81</ele>
        <time>2022-04-03T09:23:31Z</time>
      </trkpt>
      <trkpt lat="43.56173" lon="-1.04017">
        <ele>20.81</ele>
        <time>2022-04-03T09:23:47Z</time>
      </trkpt>
      <trkpt lat="43.56166" lon="-1.04019">
        <ele>22.25</ele>
        <time>2022-04-03T09:23:54Z</time>
      </trkpt>
      <trkpt lat="43.56162" lon="-1.04014">
        <ele>22.25</ele>
        <time>2022-04-03T09:24:04Z</time>
      </trkpt>
      <trkpt lat="43.56152" lon="-1.03996">
        <ele>22.25</ele>
        <time>2022-04-03T09:24:20Z</time>
      </trkpt>
      <trkpt lat="43.56141" lon="-1.03975">
        <ele>22.73</ele>
        <time>2022-04-03T09:24:37Z</time>
      </trkpt>
      <trkpt lat="43.5614" lon="-1.03973">
        <ele>22.73</ele>
        <time>2022-04-03T09:24:39Z</time>
      </trkpt>
      <trkpt lat="43.56128" lon="-1.03954">
        <ele>22.73</ele>
        <time>2022-04-03T09:24:57Z</time>
      </trkpt>
      <trkpt lat="43.56117" lon="-1.03934">
        <ele>22.73</ele>
        <time>2022-04-03T09:25:14Z</time>
      </trkpt>
      <trkpt lat="43.56106" lon="-1.03915">
        <ele>21.29</ele>
        <time>2022-04-03T09:25:30Z</time>
      </trkpt>
      <trkpt lat="43.56092" lon="-1.03895">
        <ele>20.81</ele>
        <time>2022-04-03T09:25:48Z</time>
      </trkpt>
      <trkpt lat="43.56074" lon="-1.03879">
        <ele>20.81</ele>
        <time>2022-04-03T09:26:06Z</time>
      </trkpt>
      <trkpt lat="43.56058" lon="-1.03867">
        <ele>22.25</ele>
        <time>2022-04-03T09:26:22Z</time>
      </trkpt>
      <trkpt lat="43.56041" lon="-1.03856">
        <ele>22.25</ele>
        <time>2022-04-03T09:26:38Z</time>
      </trkpt>
      <trkpt lat="43.5603" lon="-1.03847">
        <ele>20.81</ele>
        <time>2022-04-03T09:26:50Z</time>
      </trkpt>
      <trkpt lat="43.56019" lon="-1.03837">
        <ele>20.32</ele>
        <time>2022-04-03T09:27:07Z</time>
      </trkpt>
      <trkpt lat="43.56016" lon="-1.03826">
        <ele>20.32</ele>
        <time>2022-04-03T09:27:20Z</time>
      </trkpt>
      <trkpt lat="43.56012" lon="-1.03812">
        <ele>19.84</ele>
        <time>2022-04-03T09:27:34Z</time>
      </trkpt>
      <trkpt lat="43.56009" lon="-1.03803">
        <ele>19.84</ele>
        <time>2022-04-03T09:27:48Z</time>
      </trkpt>
      <trkpt lat="43.5601" lon="-1.03787">
        <ele>19.36</ele>
        <time>2022-04-03T09:28:02Z</time>
      </trkpt>
      <trkpt lat="43.56008" lon="-1.0377">
        <ele>19.36</ele>
        <time>2022-04-03T09:28:16Z</time>
      </trkpt>
      <trkpt lat="43.56013" lon="-1.03747">
        <ele>19.36</ele>
        <time>2022-04-03T09:28:33Z</time>
      </trkpt>
      <trkpt lat="43.56016" lon="-1.03732">
        <ele>19.36</ele>
        <time>2022-04-03T09:28:46Z</time>
      </trkpt>
      <trkpt lat="43.56018" lon="-1.03723">
        <ele>19.36</ele>
        <time>2022-04-03T09:28:54Z</time>
      </trkpt>
      <trkpt lat="43.5602" lon="-1.03705">
        <ele>18.88</ele>
        <time>2022-04-03T09:29:08Z</time>
      </trkpt>
      <trkpt lat="43.56015" lon="-1.03694">
        <ele>18.4</ele>
        <time>2022-04-03T09:29:22Z</time>
      </trkpt>
      <trkpt lat="43.56014" lon="-1.03685">
        <ele>19.84</ele>
        <time>2022-04-03T09:29:36Z</time>
      </trkpt>
      <trkpt lat="43.56009" lon="-1.03676">
        <ele>20.32</ele>
        <time>2022-04-03T09:29:50Z</time>
      </trkpt>
      <trkpt lat="43.56004" lon="-1.03663">
        <ele>21.29</ele>
        <time>2022-04-03T09:30:04Z</time>
      </trkpt>
      <trkpt lat="43.56003" lon="-1.03654">
        <ele>21.77</ele>
        <time>2022-04-03T09:30:13Z</time>
      </trkpt>
      <trkpt lat="43.55999" lon="-1.03639">
        <ele>21.77</ele>
        <time>2022-04-03T09:30:29Z</time>
      </trkpt>
      <trkpt lat="43.55992" lon="-1.03644">
        <ele>20.81</ele>
        <time>2022-04-03T09:30:44Z</time>
      </trkpt>
      <trkpt lat="43.55981" lon="-1.03642">
        <ele>19.84</ele>
        <time>2022-04-03T09:30:59Z</time>
      </trkpt>
      <trkpt lat="43.55974" lon="-1.03643">
        <ele>19.36</ele>
        <time>2022-04-03T09:31:15Z</time>
      </trkpt>
      <trkpt lat="43.55964" lon="-1.03646">
        <ele>19.36</ele>
        <time>2022-04-03T09:31:32Z</time>
      </trkpt>
      <trkpt lat="43.55956" lon="-1.03645">
        <ele>19.36</ele>
        <time>2022-04-03T09:31:47Z</time>
      </trkpt>
      <trkpt lat="43.55949" lon="-1.0365">
        <ele>18.88</ele>
        <time>2022-04-03T09:32:02Z</time>
      </trkpt>
      <trkpt lat="43.55945" lon="-1.03647">
        <ele>18.88</ele>
        <time>2022-04-03T09:32:17Z</time>
      </trkpt>
      <trkpt lat="43.55934" lon="-1.03642">
        <ele>19.36</ele>
        <time>2022-04-03T09:32:34Z</time>
      </trkpt>
      <trkpt lat="43.55924" lon="-1.03651">
        <ele>20.32</ele>
        <time>2022-04-03T09:32:50Z</time>
      </trkpt>
      <trkpt lat="43.55923" lon="-1.0366">
        <ele>21.29</ele>
        <time>2022-04-03T09:33:01Z</time>
      </trkpt>
      <trkpt lat="43.55914" lon="-1.03667">
        <ele>25.13</ele>
        <time>2022-04-03T09:33:14Z</time>
      </trkpt>
      <trkpt lat="43.55907" lon="-1.03666">
        <ele>22.73</ele>
        <time>2022-04-03T09:33:39Z</time>
      </trkpt>
      <trkpt lat="43.55907" lon="-1.03669">
        <ele>23.69</ele>
        <time>2022-04-03T09:34:33Z</time>
      </trkpt>
      <trkpt lat="43.55897" lon="-1.0369">
        <ele>23.69</ele>
        <time>2022-04-03T09:35:36Z</time>
      </trkpt>
      <trkpt lat="43.55892" lon="-1.03695">
        <ele>23.69</ele>
        <time>2022-04-03T09:35:40Z</time>
      </trkpt>
      <trkpt lat="43.55875" lon="-1.03699">
        <ele>24.65</ele>
        <time>2022-04-03T09:35:57Z</time>
      </trkpt>
      <trkpt lat="43.55863" lon="-1.03693">
        <ele>24.65</ele>
        <time>2022-04-03T09:36:13Z</time>
      </trkpt>
      <trkpt lat="43.55851" lon="-1.03685">
        <ele>24.65</ele>
        <time>2022-04-03T09:36:31Z</time>
      </trkpt>
      <trkpt lat="43.55839" lon="-1.0368">
        <ele>24.65</ele>
        <time>2022-04-03T09:36:46Z</time>
      </trkpt>
      <trkpt lat="43.55826" lon="-1.03672">
        <ele>25.61</ele>
        <time>2022-04-03T09:37:03Z</time>
      </trkpt>
      <trkpt lat="43.55811" lon="-1.03672">
        <ele>25.61</ele>
        <time>2022-04-03T09:37:16Z</time>
      </trkpt>
      <trkpt lat="43.5579" lon="-1.03669">
        <ele>26.57</ele>
        <time>2022-04-03T09:37:32Z</time>
      </trkpt>
      <trkpt lat="43.5578" lon="-1.03662">
        <ele>26.57</ele>
        <time>2022-04-03T09:37:47Z</time>
      </trkpt>
      <trkpt lat="43.55767" lon="-1.03651">
        <ele>27.05</ele>
        <time>2022-04-03T09:38:07Z</time>
      </trkpt>
      <trkpt lat="43.55757" lon="-1.03638">
        <ele>28.02</ele>
        <time>2022-04-03T09:38:25Z</time>
      </trkpt>
      <trkpt lat="43.5575" lon="-1.03629">
        <ele>28.98</ele>
        <time>2022-04-03T09:38:40Z</time>
      </trkpt>
      <trkpt lat="43.55742" lon="-1.0362">
        <ele>29.46</ele>
        <time>2022-04-03T09:38:55Z</time>
      </trkpt>
      <trkpt lat="43.55733" lon="-1.03602">
        <ele>30.42</ele>
        <time>2022-04-03T09:39:07Z</time>
      </trkpt>
      <trkpt lat="43.55727" lon="-1.03592">
        <ele>31.38</ele>
        <time>2022-04-03T09:39:24Z</time>
      </trkpt>
      <trkpt lat="43.55725" lon="-1.03584">
        <ele>31.86</ele>
        <time>2022-04-03T09:39:42Z</time>
      </trkpt>
      <trkpt lat="43.55723" lon="-1.03576">
        <ele>31.86</ele>
        <time>2022-04-03T09:39:59Z</time>
      </trkpt>
      <trkpt lat="43.55721" lon="-1.03567">
        <ele>33.3</ele>
        <time>2022-04-03T09:40:14Z</time>
      </trkpt>
      <trkpt lat="43.55719" lon="-1.03554">
        <ele>34.26</ele>
        <time>2022-04-03T09:40:29Z</time>
      </trkpt>
      <trkpt lat="43.55717" lon="-1.03536">
        <ele>35.23</ele>
        <time>2022-04-03T09:40:45Z</time>
      </trkpt>
      <trkpt lat="43.55716" lon="-1.03525">
        <ele>35.71</ele>
        <time>2022-04-03T09:41:02Z</time>
      </trkpt>
      <trkpt lat="43.55715" lon="-1.03517">
        <ele>35.71</ele>
        <time>2022-04-03T09:41:17Z</time>
      </trkpt>
      <trkpt lat="43.55712" lon="-1.03508">
        <ele>35.71</ele>
        <time>2022-04-03T09:41:30Z</time>
      </trkpt>
      <trkpt lat="43.55708" lon="-1.03495">
        <ele>36.19</ele>
        <time>2022-04-03T09:41:46Z</time>
      </trkpt>
      <trkpt lat="43.55707" lon="-1.03487">
        <ele>36.19</ele>
        <time>2022-04-03T09:42:05Z</time>
      </trkpt>
      <trkpt lat="43.55705" lon="-1.03484">
        <ele>36.19</ele>
        <time>2022-04-03T09:42:25Z</time>
      </trkpt>
      <trkpt lat="43.55704" lon="-1.03478">
        <ele>36.19</ele>
        <time>2022-04-03T09:42:42Z</time>
      </trkpt>
      <trkpt lat="43.55704" lon="-1.03476">
        <ele>36.19</ele>
        <time>2022-04-03T09:43:00Z</time>
      </trkpt>
      <trkpt lat="43.55704" lon="-1.03477">
        <ele>36.19</ele>
        <time>2022-04-03T09:43:28Z</time>
      </trkpt>
      <trkpt lat="43.55704" lon="-1.03475">
        <ele>36.19</ele>
        <time>2022-04-03T09:43:45Z</time>
      </trkpt>
      <trkpt lat="43.55703" lon="-1.03473">
        <ele>36.19</ele>
        <time>2022-04-03T09:44:05Z</time>
      </trkpt>
      <trkpt lat="43.55703" lon="-1.0347">
        <ele>36.19</ele>
        <time>2022-04-03T09:44:25Z</time>
      </trkpt>
      <trkpt lat="43.557" lon="-1.03457">
        <ele>36.19</ele>
        <time>2022-04-03T09:44:40Z</time>
      </trkpt>
      <trkpt lat="43.55696" lon="-1.03439">
        <ele>36.19</ele>
        <time>2022-04-03T09:44:55Z</time>
      </trkpt>
      <trkpt lat="43.55692" lon="-1.03429">
        <ele>36.19</ele>
        <time>2022-04-03T09:45:08Z</time>
      </trkpt>
      <trkpt lat="43.55691" lon="-1.03421">
        <ele>36.19</ele>
        <time>2022-04-03T09:45:17Z</time>
      </trkpt>
      <trkpt lat="43.55688" lon="-1.03407">
        <ele>36.19</ele>
        <time>2022-04-03T09:45:30Z</time>
      </trkpt>
      <trkpt lat="43.55686" lon="-1.03391">
        <ele>36.19</ele>
        <time>2022-04-03T09:45:43Z</time>
      </trkpt>
      <trkpt lat="43.55686" lon="-1.03373">
        <ele>36.67</ele>
        <time>2022-04-03T09:45:59Z</time>
      </trkpt>
      <trkpt lat="43.55686" lon="-1.03356">
        <ele>37.15</ele>
        <time>2022-04-03T09:46:12Z</time>
      </trkpt>
      <trkpt lat="43.55686" lon="-1.0334">
        <ele>37.63</ele>
        <time>2022-04-03T09:46:24Z</time>
      </trkpt>
      <trkpt lat="43.55689" lon="-1.03329">
        <ele>38.11</ele>
        <time>2022-04-03T09:46:38Z</time>
      </trkpt>
      <trkpt lat="43.55691" lon="-1.03325">
        <ele>38.11</ele>
        <time>2022-04-03T09:46:53Z</time>
      </trkpt>
      <trkpt lat="43.55691" lon="-1.03325">
        <ele>38.59</ele>
        <time>2022-04-03T09:47:06Z</time>
      </trkpt>
      <trkpt lat="43.55692" lon="-1.03323">
        <ele>38.59</ele>
        <time>2022-04-03T09:47:40Z</time>
      </trkpt>
      <trkpt lat="43.55685" lon="-1.03323">
        <ele>38.59</ele>
        <time>2022-04-03T09:47:51Z</time>
      </trkpt>
      <trkpt lat="43.55681" lon="-1.03323">
        <ele>38.59</ele>
        <time>2022-04-03T09:47:54Z</time>
      </trkpt>
      <trkpt lat="43.55679" lon="-1.0332">
        <ele>38.11</ele>
        <time>2022-04-03T09:47:57Z</time>
      </trkpt>
      <trkpt lat="43.55662" lon="-1.03315">
        <ele>36.67</ele>
        <time>2022-04-03T09:48:13Z</time>
      </trkpt>
      <trkpt lat="43.55647" lon="-1.03309">
        <ele>35.23</ele>
        <time>2022-04-03T09:48:28Z</time>
      </trkpt>
      <trkpt lat="43.55631" lon="-1.03303">
        <ele>35.23</ele>
        <time>2022-04-03T09:48:44Z</time>
      </trkpt>
      <trkpt lat="43.55628" lon="-1.03301">
        <ele>34.74</ele>
        <time>2022-04-03T09:48:47Z</time>
      </trkpt>
      <trkpt lat="43.55623" lon="-1.033">
        <ele>34.74</ele>
        <time>2022-04-03T09:48:53Z</time>
      </trkpt>
      <trkpt lat="43.55609" lon="-1.03298">
        <ele>34.26</ele>
        <time>2022-04-03T09:49:08Z</time>
      </trkpt>
      <trkpt lat="43.55597" lon="-1.03297">
        <ele>34.26</ele>
        <time>2022-04-03T09:49:19Z</time>
      </trkpt>
      <trkpt lat="43.55573" lon="-1.03293">
        <ele>33.78</ele>
        <time>2022-04-03T09:49:38Z</time>
      </trkpt>
      <trkpt lat="43.55552" lon="-1.03273">
        <ele>33.78</ele>
        <time>2022-04-03T09:49:59Z</time>
      </trkpt>
      <trkpt lat="43.55546" lon="-1.03264">
        <ele>33.78</ele>
        <time>2022-04-03T09:50:07Z</time>
      </trkpt>
      <trkpt lat="43.55544" lon="-1.03262">
        <ele>34.74</ele>
        <time>2022-04-03T09:50:09Z</time>
      </trkpt>
      <trkpt lat="43.55529" lon="-1.03245">
        <ele>35.71</ele>
        <time>2022-04-03T09:50:26Z</time>
      </trkpt>
      <trkpt lat="43.55516" lon="-1.03229">
        <ele>37.15</ele>
        <time>2022-04-03T09:50:43Z</time>
      </trkpt>
      <trkpt lat="43.55515" lon="-1.03228">
        <ele>37.15</ele>
        <time>2022-04-03T09:50:44Z</time>
      </trkpt>
      <trkpt lat="43.55511" lon="-1.03226">
        <ele>37.15</ele>
        <time>2022-04-03T09:50:47Z</time>
      </trkpt>
      <trkpt lat="43.55508" lon="-1.03223">
        <ele>37.15</ele>
        <time>2022-04-03T09:50:51Z</time>
      </trkpt>
      <trkpt lat="43.55505" lon="-1.03219">
        <ele>37.15</ele>
        <time>2022-04-03T09:50:55Z</time>
      </trkpt>
      <trkpt lat="43.55494" lon="-1.03199">
        <ele>38.11</ele>
        <time>2022-04-03T09:51:12Z</time>
      </trkpt>
      <trkpt lat="43.55481" lon="-1.03182">
        <ele>38.59</ele>
        <time>2022-04-03T09:51:29Z</time>
      </trkpt>
      <trkpt lat="43.55475" lon="-1.03179">
        <ele>39.07</ele>
        <time>2022-04-03T09:51:37Z</time>
      </trkpt>
      <trkpt lat="43.55467" lon="-1.03178">
        <ele>39.07</ele>
        <time>2022-04-03T09:51:46Z</time>
      </trkpt>
      <trkpt lat="43.55451" lon="-1.03181">
        <ele>39.55</ele>
        <time>2022-04-03T09:52:04Z</time>
      </trkpt>
      <trkpt lat="43.55436" lon="-1.03182">
        <ele>39.55</ele>
        <time>2022-04-03T09:52:19Z</time>
      </trkpt>
      <trkpt lat="43.55422" lon="-1.0318">
        <ele>38.11</ele>
        <time>2022-04-03T09:52:34Z</time>
      </trkpt>
      <trkpt lat="43.55409" lon="-1.03171">
        <ele>38.11</ele>
        <time>2022-04-03T09:52:47Z</time>
      </trkpt>
      <trkpt lat="43.55395" lon="-1.03156">
        <ele>38.11</ele>
        <time>2022-04-03T09:53:01Z</time>
      </trkpt>
      <trkpt lat="43.55392" lon="-1.03152">
        <ele>38.11</ele>
        <time>2022-04-03T09:53:04Z</time>
      </trkpt>
      <trkpt lat="43.55378" lon="-1.03138">
        <ele>37.63</ele>
        <time>2022-04-03T09:53:20Z</time>
      </trkpt>
      <trkpt lat="43.55367" lon="-1.03121">
        <ele>37.63</ele>
        <time>2022-04-03T09:53:35Z</time>
      </trkpt>
      <trkpt lat="43.55358" lon="-1.03097">
        <ele>37.63</ele>
        <time>2022-04-03T09:53:52Z</time>
      </trkpt>
      <trkpt lat="43.55354" lon="-1.03076">
        <ele>37.63</ele>
        <time>2022-04-03T09:54:08Z</time>
      </trkpt>
      <trkpt lat="43.55354" lon="-1.03056">
        <ele>37.63</ele>
        <time>2022-04-03T09:54:20Z</time>
      </trkpt>
      <trkpt lat="43.55353" lon="-1.03046">
        <ele>39.07</ele>
        <time>2022-04-03T09:54:27Z</time>
      </trkpt>
      <trkpt lat="43.5536" lon="-1.03019">
        <ele>39.07</ele>
        <time>2022-04-03T09:54:45Z</time>
      </trkpt>
      <trkpt lat="43.5537" lon="-1.02996">
        <ele>39.55</ele>
        <time>2022-04-03T09:55:00Z</time>
      </trkpt>
      <trkpt lat="43.55379" lon="-1.0298">
        <ele>40.99</ele>
        <time>2022-04-03T09:55:14Z</time>
      </trkpt>
      <trkpt lat="43.55387" lon="-1.02963">
        <ele>42.92</ele>
        <time>2022-04-03T09:55:32Z</time>
      </trkpt>
      <trkpt lat="43.55393" lon="-1.02948">
        <ele>43.88</ele>
        <time>2022-04-03T09:55:47Z</time>
      </trkpt>
      <trkpt lat="43.55401" lon="-1.02927">
        <ele>43.88</ele>
        <time>2022-04-03T09:56:03Z</time>
      </trkpt>
      <trkpt lat="43.55404" lon="-1.02919">
        <ele>43.88</ele>
        <time>2022-04-03T09:56:09Z</time>
      </trkpt>
      <trkpt lat="43.55406" lon="-1.02914">
        <ele>43.88</ele>
        <time>2022-04-03T09:56:13Z</time>
      </trkpt>
      <trkpt lat="43.55413" lon="-1.02896">
        <ele>44.84</ele>
        <time>2022-04-03T09:56:29Z</time>
      </trkpt>
      <trkpt lat="43.55421" lon="-1.02873">
        <ele>45.32</ele>
        <time>2022-04-03T09:56:46Z</time>
      </trkpt>
      <trkpt lat="43.55429" lon="-1.02857">
        <ele>45.8</ele>
        <time>2022-04-03T09:56:59Z</time>
      </trkpt>
      <trkpt lat="43.5544" lon="-1.02835">
        <ele>46.28</ele>
        <time>2022-04-03T09:57:16Z</time>
      </trkpt>
      <trkpt lat="43.55454" lon="-1.02817">
        <ele>47.72</ele>
        <time>2022-04-03T09:57:33Z</time>
      </trkpt>
      <trkpt lat="43.55459" lon="-1.0281">
        <ele>48.2</ele>
        <time>2022-04-03T09:57:40Z</time>
      </trkpt>
      <trkpt lat="43.55463" lon="-1.02807">
        <ele>48.2</ele>
        <time>2022-04-03T09:57:44Z</time>
      </trkpt>
      <trkpt lat="43.55475" lon="-1.02794">
        <ele>48.2</ele>
        <time>2022-04-03T09:58:00Z</time>
      </trkpt>
      <trkpt lat="43.55488" lon="-1.02783">
        <ele>48.2</ele>
        <time>2022-04-03T09:58:14Z</time>
      </trkpt>
      <trkpt lat="43.55502" lon="-1.02765">
        <ele>48.68</ele>
        <time>2022-04-03T09:58:32Z</time>
      </trkpt>
      <trkpt lat="43.55512" lon="-1.02749">
        <ele>49.65</ele>
        <time>2022-04-03T09:58:47Z</time>
      </trkpt>
      <trkpt lat="43.55515" lon="-1.02743">
        <ele>50.61</ele>
        <time>2022-04-03T09:58:53Z</time>
      </trkpt>
      <trkpt lat="43.55523" lon="-1.02732">
        <ele>54.45</ele>
        <time>2022-04-03T11:30:09Z</time>
      </trkpt>
      <trkpt lat="43.5553" lon="-1.02714">
        <ele>53.01</ele>
        <time>2022-04-03T11:30:25Z</time>
      </trkpt>
      <trkpt lat="43.55538" lon="-1.0269">
        <ele>52.05</ele>
        <time>2022-04-03T11:30:43Z</time>
      </trkpt>
      <trkpt lat="43.55546" lon="-1.02672">
        <ele>52.05</ele>
        <time>2022-04-03T11:31:00Z</time>
      </trkpt>
      <trkpt lat="43.55551" lon="-1.02644">
        <ele>53.49</ele>
        <time>2022-04-03T11:31:19Z</time>
      </trkpt>
      <trkpt lat="43.55554" lon="-1.0263">
        <ele>55.41</ele>
        <time>2022-04-03T11:31:33Z</time>
      </trkpt>
      <trkpt lat="43.55556" lon="-1.02624">
        <ele>55.89</ele>
        <time>2022-04-03T11:31:51Z</time>
      </trkpt>
      <trkpt lat="43.55555" lon="-1.02613">
        <ele>55.89</ele>
        <time>2022-04-03T11:32:12Z</time>
      </trkpt>
      <trkpt lat="43.55554" lon="-1.02605">
        <ele>55.41</ele>
        <time>2022-04-03T11:33:49Z</time>
      </trkpt>
      <trkpt lat="43.55541" lon="-1.02595">
        <ele>56.86</ele>
        <time>2022-04-03T11:34:07Z</time>
      </trkpt>
      <trkpt lat="43.5553" lon="-1.02585">
        <ele>58.3</ele>
        <time>2022-04-03T11:34:22Z</time>
      </trkpt>
      <trkpt lat="43.55528" lon="-1.02583">
        <ele>58.78</ele>
        <time>2022-04-03T11:34:25Z</time>
      </trkpt>
      <trkpt lat="43.55516" lon="-1.02569">
        <ele>59.74</ele>
        <time>2022-04-03T11:34:41Z</time>
      </trkpt>
      <trkpt lat="43.55515" lon="-1.02567">
        <ele>60.22</ele>
        <time>2022-04-03T11:34:42Z</time>
      </trkpt>
      <trkpt lat="43.55504" lon="-1.02556">
        <ele>60.7</ele>
        <time>2022-04-03T11:34:57Z</time>
      </trkpt>
      <trkpt lat="43.55493" lon="-1.02543">
        <ele>62.14</ele>
        <time>2022-04-03T11:35:12Z</time>
      </trkpt>
      <trkpt lat="43.55482" lon="-1.02532">
        <ele>63.1</ele>
        <time>2022-04-03T11:35:26Z</time>
      </trkpt>
      <trkpt lat="43.55472" lon="-1.02522">
        <ele>64.07</ele>
        <time>2022-04-03T11:35:39Z</time>
      </trkpt>
      <trkpt lat="43.55468" lon="-1.02518">
        <ele>64.55</ele>
        <time>2022-04-03T11:35:45Z</time>
      </trkpt>
      <trkpt lat="43.55453" lon="-1.02504">
        <ele>65.51</ele>
        <time>2022-04-03T11:36:01Z</time>
      </trkpt>
      <trkpt lat="43.55443" lon="-1.02494">
        <ele>66.95</ele>
        <time>2022-04-03T11:36:14Z</time>
      </trkpt>
      <trkpt lat="43.55435" lon="-1.02482">
        <ele>67.91</ele>
        <time>2022-04-03T11:36:28Z</time>
      </trkpt>
      <trkpt lat="43.55426" lon="-1.0247">
        <ele>69.35</ele>
        <time>2022-04-03T11:36:42Z</time>
      </trkpt>
      <trkpt lat="43.55418" lon="-1.02458">
        <ele>70.31</ele>
        <time>2022-04-03T11:36:54Z</time>
      </trkpt>
      <trkpt lat="43.55414" lon="-1.02452">
        <ele>70.31</ele>
        <time>2022-04-03T11:37:09Z</time>
      </trkpt>
      <trkpt lat="43.55402" lon="-1.02435">
        <ele>69.83</ele>
        <time>2022-04-03T11:37:26Z</time>
      </trkpt>
      <trkpt lat="43.55398" lon="-1.0243">
        <ele>68.87</ele>
        <time>2022-04-03T11:37:32Z</time>
      </trkpt>
      <trkpt lat="43.55387" lon="-1.02414">
        <ele>67.43</ele>
        <time>2022-04-03T11:37:47Z</time>
      </trkpt>
      <trkpt lat="43.55373" lon="-1.02399">
        <ele>65.03</ele>
        <time>2022-04-03T11:38:04Z</time>
      </trkpt>
      <trkpt lat="43.55368" lon="-1.02392">
        <ele>64.07</ele>
        <time>2022-04-03T11:38:12Z</time>
      </trkpt>
      <trkpt lat="43.5536" lon="-1.02379">
        <ele>62.62</ele>
        <time>2022-04-03T11:38:27Z</time>
      </trkpt>
      <trkpt lat="43.55348" lon="-1.02363">
        <ele>60.7</ele>
        <time>2022-04-03T11:38:45Z</time>
      </trkpt>
      <trkpt lat="43.55334" lon="-1.02346">
        <ele>58.78</ele>
        <time>2022-04-03T11:39:03Z</time>
      </trkpt>
      <trkpt lat="43.55319" lon="-1.02327">
        <ele>57.34</ele>
        <time>2022-04-03T11:39:23Z</time>
      </trkpt>
      <trkpt lat="43.55305" lon="-1.02309">
        <ele>55.89</ele>
        <time>2022-04-03T11:39:42Z</time>
      </trkpt>
      <trkpt lat="43.55291" lon="-1.02292">
        <ele>53.97</ele>
        <time>2022-04-03T11:40:01Z</time>
      </trkpt>
      <trkpt lat="43.55276" lon="-1.02276">
        <ele>53.01</ele>
        <time>2022-04-03T11:40:19Z</time>
      </trkpt>
      <trkpt lat="43.5526" lon="-1.02258">
        <ele>51.09</ele>
        <time>2022-04-03T11:40:39Z</time>
      </trkpt>
      <trkpt lat="43.55242" lon="-1.02242">
        <ele>49.16</ele>
        <time>2022-04-03T11:40:59Z</time>
      </trkpt>
      <trkpt lat="43.55228" lon="-1.02228">
        <ele>47.72</ele>
        <time>2022-04-03T11:41:16Z</time>
      </trkpt>
      <trkpt lat="43.5522" lon="-1.02221">
        <ele>46.76</ele>
        <time>2022-04-03T11:41:25Z</time>
      </trkpt>
      <trkpt lat="43.55217" lon="-1.0222">
        <ele>46.76</ele>
        <time>2022-04-03T11:41:28Z</time>
      </trkpt>
      <trkpt lat="43.55211" lon="-1.02214">
        <ele>46.28</ele>
        <time>2022-04-03T11:41:35Z</time>
      </trkpt>
      <trkpt lat="43.55193" lon="-1.02205">
        <ele>44.84</ele>
        <time>2022-04-03T11:41:53Z</time>
      </trkpt>
      <trkpt lat="43.55171" lon="-1.022">
        <ele>43.88</ele>
        <time>2022-04-03T11:42:13Z</time>
      </trkpt>
      <trkpt lat="43.55164" lon="-1.02198">
        <ele>43.88</ele>
        <time>2022-04-03T11:42:20Z</time>
      </trkpt>
      <trkpt lat="43.55147" lon="-1.02189">
        <ele>43.4</ele>
        <time>2022-04-03T11:42:37Z</time>
      </trkpt>
      <trkpt lat="43.55138" lon="-1.02164">
        <ele>42.92</ele>
        <time>2022-04-03T11:42:55Z</time>
      </trkpt>
      <trkpt lat="43.55128" lon="-1.02141">
        <ele>42.92</ele>
        <time>2022-04-03T11:43:12Z</time>
      </trkpt>
      <trkpt lat="43.5512" lon="-1.02113">
        <ele>44.36</ele>
        <time>2022-04-03T11:43:32Z</time>
      </trkpt>
      <trkpt lat="43.55111" lon="-1.02086">
        <ele>44.84</ele>
        <time>2022-04-03T11:43:52Z</time>
      </trkpt>
      <trkpt lat="43.55106" lon="-1.02076">
        <ele>43.88</ele>
        <time>2022-04-03T11:44:01Z</time>
      </trkpt>
      <trkpt lat="43.55103" lon="-1.02074">
        <ele>43.4</ele>
        <time>2022-04-03T11:44:05Z</time>
      </trkpt>
      <trkpt lat="43.55081" lon="-1.02068">
        <ele>42.44</ele>
        <time>2022-04-03T11:44:25Z</time>
      </trkpt>
      <trkpt lat="43.55077" lon="-1.02065">
        <ele>42.44</ele>
        <time>2022-04-03T11:44:38Z</time>
      </trkpt>
      <trkpt lat="43.55076" lon="-1.02063">
        <ele>41.95</ele>
        <time>2022-04-03T11:44:58Z</time>
      </trkpt>
      <trkpt lat="43.55065" lon="-1.02053">
        <ele>41.47</ele>
        <time>2022-04-03T11:45:13Z</time>
      </trkpt>
      <trkpt lat="43.55063" lon="-1.02046">
        <ele>42.44</ele>
        <time>2022-04-03T11:45:19Z</time>
      </trkpt>
      <trkpt lat="43.55055" lon="-1.02018">
        <ele>40.99</ele>
        <time>2022-04-03T11:45:39Z</time>
      </trkpt>
      <trkpt lat="43.55046" lon="-1.01988">
        <ele>40.51</ele>
        <time>2022-04-03T11:45:59Z</time>
      </trkpt>
      <trkpt lat="43.55039" lon="-1.01961">
        <ele>40.03</ele>
        <time>2022-04-03T11:46:18Z</time>
      </trkpt>
      <trkpt lat="43.55031" lon="-1.01932">
        <ele>40.03</ele>
        <time>2022-04-03T11:46:38Z</time>
      </trkpt>
      <trkpt lat="43.55028" lon="-1.01904">
        <ele>40.99</ele>
        <time>2022-04-03T11:46:56Z</time>
      </trkpt>
      <trkpt lat="43.55028" lon="-1.01872">
        <ele>40.03</ele>
        <time>2022-04-03T11:47:16Z</time>
      </trkpt>
      <trkpt lat="43.55028" lon="-1.0187">
        <ele>40.03</ele>
        <time>2022-04-03T11:47:17Z</time>
      </trkpt>
      <trkpt lat="43.55025" lon="-1.01871">
        <ele>39.55</ele>
        <time>2022-04-03T11:47:32Z</time>
      </trkpt>
      <trkpt lat="43.55026" lon="-1.01873">
        <ele>40.51</ele>
        <time>2022-04-03T11:47:45Z</time>
      </trkpt>
      <trkpt lat="43.55027" lon="-1.01873">
        <ele>39.07</ele>
        <time>2022-04-03T11:48:09Z</time>
      </trkpt>
      <trkpt lat="43.55028" lon="-1.01872">
        <ele>39.07</ele>
        <time>2022-04-03T11:48:40Z</time>
      </trkpt>
      <trkpt lat="43.55027" lon="-1.01858">
        <ele>39.07</ele>
        <time>2022-04-03T11:48:51Z</time>
      </trkpt>
      <trkpt lat="43.55026" lon="-1.01825">
        <ele>39.07</ele>
        <time>2022-04-03T11:49:11Z</time>
      </trkpt>
      <trkpt lat="43.55027" lon="-1.01791">
        <ele>38.59</ele>
        <time>2022-04-03T11:49:34Z</time>
      </trkpt>
      <trkpt lat="43.55026" lon="-1.01786">
        <ele>38.59</ele>
        <time>2022-04-03T11:49:56Z</time>
      </trkpt>
      <trkpt lat="43.55026" lon="-1.01753">
        <ele>39.55</ele>
        <time>2022-04-03T11:50:17Z</time>
      </trkpt>
      <trkpt lat="43.55027" lon="-1.0172">
        <ele>39.55</ele>
        <time>2022-04-03T11:50:37Z</time>
      </trkpt>
      <trkpt lat="43.55028" lon="-1.01688">
        <ele>39.55</ele>
        <time>2022-04-03T11:50:58Z</time>
      </trkpt>
      <trkpt lat="43.55029" lon="-1.01657">
        <ele>39.55</ele>
        <time>2022-04-03T11:51:18Z</time>
      </trkpt>
      <trkpt lat="43.55028" lon="-1.01636">
        <ele>39.55</ele>
        <time>2022-04-03T11:51:32Z</time>
      </trkpt>
      <trkpt lat="43.55015" lon="-1.01619">
        <ele>39.55</ele>
        <time>2022-04-03T11:51:51Z</time>
      </trkpt>
      <trkpt lat="43.54993" lon="-1.01616">
        <ele>39.55</ele>
        <time>2022-04-03T11:52:11Z</time>
      </trkpt>
      <trkpt lat="43.54975" lon="-1.01611">
        <ele>38.59</ele>
        <time>2022-04-03T11:52:28Z</time>
      </trkpt>
      <trkpt lat="43.54952" lon="-1.01602">
        <ele>38.59</ele>
        <time>2022-04-03T11:52:49Z</time>
      </trkpt>
      <trkpt lat="43.54935" lon="-1.01597">
        <ele>38.59</ele>
        <time>2022-04-03T11:53:07Z</time>
      </trkpt>
      <trkpt lat="43.54913" lon="-1.01593">
        <ele>38.59</ele>
        <time>2022-04-03T11:53:28Z</time>
      </trkpt>
      <trkpt lat="43.54909" lon="-1.01588">
        <ele>38.59</ele>
        <time>2022-04-03T11:53:42Z</time>
      </trkpt>
      <trkpt lat="43.54909" lon="-1.01588">
        <ele>38.59</ele>
        <time>2022-04-03T11:53:57Z</time>
      </trkpt>
      <trkpt lat="43.54909" lon="-1.01582">
        <ele>38.59</ele>
        <time>2022-04-03T11:54:04Z</time>
      </trkpt>
      <trkpt lat="43.54907" lon="-1.01578">
        <ele>38.59</ele>
        <time>2022-04-03T11:54:07Z</time>
      </trkpt>
      <trkpt lat="43.54904" lon="-1.0157">
        <ele>38.59</ele>
        <time>2022-04-03T11:54:12Z</time>
      </trkpt>
      <trkpt lat="43.54898" lon="-1.01547">
        <ele>38.59</ele>
        <time>2022-04-03T11:54:28Z</time>
      </trkpt>
      <trkpt lat="43.5489" lon="-1.01524">
        <ele>38.59</ele>
        <time>2022-04-03T11:54:45Z</time>
      </trkpt>
      <trkpt lat="43.54872" lon="-1.01515">
        <ele>38.11</ele>
        <time>2022-04-03T11:55:05Z</time>
      </trkpt>
      <trkpt lat="43.54851" lon="-1.01515">
        <ele>38.11</ele>
        <time>2022-04-03T11:55:23Z</time>
      </trkpt>
      <trkpt lat="43.54831" lon="-1.01514">
        <ele>37.63</ele>
        <time>2022-04-03T11:55:42Z</time>
      </trkpt>
      <trkpt lat="43.54811" lon="-1.01515">
        <ele>37.63</ele>
        <time>2022-04-03T11:55:59Z</time>
      </trkpt>
      <trkpt lat="43.54792" lon="-1.01515">
        <ele>37.15</ele>
        <time>2022-04-03T11:56:19Z</time>
      </trkpt>
      <trkpt lat="43.5477" lon="-1.01513">
        <ele>37.15</ele>
        <time>2022-04-03T11:56:39Z</time>
      </trkpt>
      <trkpt lat="43.54751" lon="-1.01511">
        <ele>36.67</ele>
        <time>2022-04-03T11:56:57Z</time>
      </trkpt>
      <trkpt lat="43.5473" lon="-1.01511">
        <ele>36.67</ele>
        <time>2022-04-03T11:57:17Z</time>
      </trkpt>
      <trkpt lat="43.54712" lon="-1.01508">
        <ele>36.67</ele>
        <time>2022-04-03T11:57:35Z</time>
      </trkpt>
      <trkpt lat="43.54691" lon="-1.01508">
        <ele>36.67</ele>
        <time>2022-04-03T11:57:53Z</time>
      </trkpt>
      <trkpt lat="43.54672" lon="-1.01507">
        <ele>35.23</ele>
        <time>2022-04-03T11:58:10Z</time>
      </trkpt>
      <trkpt lat="43.54652" lon="-1.01508">
        <ele>33.78</ele>
        <time>2022-04-03T11:58:27Z</time>
      </trkpt>
      <trkpt lat="43.5463" lon="-1.01509">
        <ele>32.34</ele>
        <time>2022-04-03T11:58:46Z</time>
      </trkpt>
      <trkpt lat="43.54613" lon="-1.01507">
        <ele>30.42</ele>
        <time>2022-04-03T11:59:03Z</time>
      </trkpt>
      <trkpt lat="43.54597" lon="-1.01506">
        <ele>28.5</ele>
        <time>2022-04-03T11:59:20Z</time>
      </trkpt>
      <trkpt lat="43.5458" lon="-1.01507">
        <ele>25.61</ele>
        <time>2022-04-03T11:59:37Z</time>
      </trkpt>
      <trkpt lat="43.54558" lon="-1.01504">
        <ele>23.21</ele>
        <time>2022-04-03T11:59:57Z</time>
      </trkpt>
      <trkpt lat="43.54554" lon="-1.01502">
        <ele>23.21</ele>
        <time>2022-04-03T12:00:01Z</time>
      </trkpt>
      <trkpt lat="43.54529" lon="-1.015">
        <ele>21.29</ele>
        <time>2022-04-03T12:00:23Z</time>
      </trkpt>
      <trkpt lat="43.54507" lon="-1.01505">
        <ele>19.84</ele>
        <time>2022-04-03T12:00:43Z</time>
      </trkpt>
      <trkpt lat="43.54485" lon="-1.0151">
        <ele>18.4</ele>
        <time>2022-04-03T12:01:03Z</time>
      </trkpt>
      <trkpt lat="43.54466" lon="-1.01515">
        <ele>17.92</ele>
        <time>2022-04-03T12:01:21Z</time>
      </trkpt>
      <trkpt lat="43.54444" lon="-1.01521">
        <ele>16.96</ele>
        <time>2022-04-03T12:01:42Z</time>
      </trkpt>
      <trkpt lat="43.54422" lon="-1.01526">
        <ele>16.96</ele>
        <time>2022-04-03T12:02:00Z</time>
      </trkpt>
      <trkpt lat="43.544" lon="-1.01529">
        <ele>16.96</ele>
        <time>2022-04-03T12:02:19Z</time>
      </trkpt>
      <trkpt lat="43.54377" lon="-1.01529">
        <ele>16</ele>
        <time>2022-04-03T12:02:38Z</time>
      </trkpt>
      <trkpt lat="43.54371" lon="-1.01525">
        <ele>16</ele>
        <time>2022-04-03T12:02:51Z</time>
      </trkpt>
      <trkpt lat="43.54363" lon="-1.01527">
        <ele>16</ele>
        <time>2022-04-03T12:03:06Z</time>
      </trkpt>
      <trkpt lat="43.54361" lon="-1.01528">
        <ele>16</ele>
        <time>2022-04-03T12:03:21Z</time>
      </trkpt>
      <trkpt lat="43.54362" lon="-1.01525">
        <ele>15.52</ele>
        <time>2022-04-03T12:03:51Z</time>
      </trkpt>
      <trkpt lat="43.54358" lon="-1.01527">
        <ele>15.52</ele>
        <time>2022-04-03T12:04:07Z</time>
      </trkpt>
      <trkpt lat="43.54347" lon="-1.01527">
        <ele>15.52</ele>
        <time>2022-04-03T12:04:19Z</time>
      </trkpt>
      <trkpt lat="43.54327" lon="-1.01524">
        <ele>14.08</ele>
        <time>2022-04-03T12:04:40Z</time>
      </trkpt>
      <trkpt lat="43.54307" lon="-1.0152">
        <ele>13.12</ele>
        <time>2022-04-03T12:04:58Z</time>
      </trkpt>
      <trkpt lat="43.54289" lon="-1.01515">
        <ele>12.15</ele>
        <time>2022-04-03T12:05:17Z</time>
      </trkpt>
      <trkpt lat="43.54288" lon="-1.01515">
        <ele>12.15</ele>
        <time>2022-04-03T12:05:19Z</time>
      </trkpt>
      <trkpt lat="43.54281" lon="-1.01511">
        <ele>12.15</ele>
        <time>2022-04-03T12:05:36Z</time>
      </trkpt>
      <trkpt lat="43.54271" lon="-1.0151">
        <ele>12.15</ele>
        <time>2022-04-03T12:05:50Z</time>
      </trkpt>
      <trkpt lat="43.54252" lon="-1.01505">
        <ele>11.67</ele>
        <time>2022-04-03T12:06:09Z</time>
      </trkpt>
      <trkpt lat="43.54241" lon="-1.01501">
        <ele>11.19</ele>
        <time>2022-04-03T12:06:21Z</time>
      </trkpt>
      <trkpt lat="43.54229" lon="-1.01498">
        <ele>11.19</ele>
        <time>2022-04-03T12:06:38Z</time>
      </trkpt>
      <trkpt lat="43.54228" lon="-1.01498">
        <ele>11.19</ele>
        <time>2022-04-03T12:06:53Z</time>
      </trkpt>
      <trkpt lat="43.54227" lon="-1.01497">
        <ele>11.19</ele>
        <time>2022-04-03T12:07:16Z</time>
      </trkpt>
      <trkpt lat="43.54229" lon="-1.01498">
        <ele>11.19</ele>
        <time>2022-04-03T12:07:32Z</time>
      </trkpt>
      <trkpt lat="43.54223" lon="-1.01498">
        <ele>11.19</ele>
        <time>2022-04-03T12:07:46Z</time>
      </trkpt>
      <trkpt lat="43.54202" lon="-1.01493">
        <ele>11.19</ele>
        <time>2022-04-03T12:08:06Z</time>
      </trkpt>
      <trkpt lat="43.54179" lon="-1.01484">
        <ele>11.19</ele>
        <time>2022-04-03T12:08:27Z</time>
      </trkpt>
      <trkpt lat="43.54159" lon="-1.01468">
        <ele>11.19</ele>
        <time>2022-04-03T12:08:48Z</time>
      </trkpt>
      <trkpt lat="43.54144" lon="-1.01446">
        <ele>9.75</ele>
        <time>2022-04-03T12:09:08Z</time>
      </trkpt>
      <trkpt lat="43.54129" lon="-1.0142">
        <ele>8.79</ele>
        <time>2022-04-03T12:09:28Z</time>
      </trkpt>
      <trkpt lat="43.54116" lon="-1.01396">
        <ele>8.31</ele>
        <time>2022-04-03T12:09:46Z</time>
      </trkpt>
      <trkpt lat="43.54106" lon="-1.01378">
        <ele>8.31</ele>
        <time>2022-04-03T12:10:00Z</time>
      </trkpt>
      <trkpt lat="43.54089" lon="-1.01349">
        <ele>8.31</ele>
        <time>2022-04-03T12:10:22Z</time>
      </trkpt>
      <trkpt lat="43.54073" lon="-1.0132">
        <ele>7.83</ele>
        <time>2022-04-03T12:10:44Z</time>
      </trkpt>
      <trkpt lat="43.5406" lon="-1.01296">
        <ele>7.83</ele>
        <time>2022-04-03T12:11:03Z</time>
      </trkpt>
      <trkpt lat="43.54047" lon="-1.01271">
        <ele>7.83</ele>
        <time>2022-04-03T12:11:23Z</time>
      </trkpt>
      <trkpt lat="43.54035" lon="-1.01248">
        <ele>7.83</ele>
        <time>2022-04-03T12:11:41Z</time>
      </trkpt>
      <trkpt lat="43.54018" lon="-1.01217">
        <ele>7.83</ele>
        <time>2022-04-03T12:12:05Z</time>
      </trkpt>
      <trkpt lat="43.54009" lon="-1.01198">
        <ele>7.83</ele>
        <time>2022-04-03T12:12:21Z</time>
      </trkpt>
      <trkpt lat="43.53996" lon="-1.01174">
        <ele>7.83</ele>
        <time>2022-04-03T12:12:40Z</time>
      </trkpt>
      <trkpt lat="43.53982" lon="-1.0115">
        <ele>7.83</ele>
        <time>2022-04-03T12:13:00Z</time>
      </trkpt>
      <trkpt lat="43.53972" lon="-1.01132">
        <ele>7.83</ele>
        <time>2022-04-03T12:13:14Z</time>
      </trkpt>
      <trkpt lat="43.53963" lon="-1.0111">
        <ele>7.83</ele>
        <time>2022-04-03T12:13:32Z</time>
      </trkpt>
      <trkpt lat="43.53952" lon="-1.01088">
        <ele>7.83</ele>
        <time>2022-04-03T12:13:49Z</time>
      </trkpt>
      <trkpt lat="43.53945" lon="-1.01078">
        <ele>7.83</ele>
        <time>2022-04-03T12:14:07Z</time>
      </trkpt>
      <trkpt lat="43.53938" lon="-1.01071">
        <ele>8.79</ele>
        <time>2022-04-03T12:14:24Z</time>
      </trkpt>
      <trkpt lat="43.53934" lon="-1.0107">
        <ele>8.79</ele>
        <time>2022-04-03T12:14:40Z</time>
      </trkpt>
      <trkpt lat="43.53935" lon="-1.01068">
        <ele>9.27</ele>
        <time>2022-04-03T12:15:09Z</time>
      </trkpt>
      <trkpt lat="43.53939" lon="-1.01071">
        <ele>8.79</ele>
        <time>2022-04-03T12:15:41Z</time>
      </trkpt>
      <trkpt lat="43.5393" lon="-1.0107">
        <ele>8.79</ele>
        <time>2022-04-03T12:16:07Z</time>
      </trkpt>
      <trkpt lat="43.53927" lon="-1.01069">
        <ele>8.79</ele>
        <time>2022-04-03T12:16:10Z</time>
      </trkpt>
      <trkpt lat="43.53906" lon="-1.0106">
        <ele>9.75</ele>
        <time>2022-04-03T12:16:29Z</time>
      </trkpt>
      <trkpt lat="43.53883" lon="-1.01056">
        <ele>11.19</ele>
        <time>2022-04-03T12:16:49Z</time>
      </trkpt>
      <trkpt lat="43.53863" lon="-1.01063">
        <ele>11.67</ele>
        <time>2022-04-03T12:17:07Z</time>
      </trkpt>
      <trkpt lat="43.53849" lon="-1.01069">
        <ele>11.67</ele>
        <time>2022-04-03T12:17:26Z</time>
      </trkpt>
      <trkpt lat="43.5384" lon="-1.0107">
        <ele>11.67</ele>
        <time>2022-04-03T12:17:45Z</time>
      </trkpt>
      <trkpt lat="43.53825" lon="-1.01076">
        <ele>12.15</ele>
        <time>2022-04-03T12:18:02Z</time>
      </trkpt>
      <trkpt lat="43.53811" lon="-1.01079">
        <ele>12.15</ele>
        <time>2022-04-03T12:18:18Z</time>
      </trkpt>
      <trkpt lat="43.53806" lon="-1.0108">
        <ele>12.15</ele>
        <time>2022-04-03T12:18:24Z</time>
      </trkpt>
      <trkpt lat="43.53793" lon="-1.01088">
        <ele>12.15</ele>
        <time>2022-04-03T12:18:39Z</time>
      </trkpt>
      <trkpt lat="43.5379" lon="-1.01089">
        <ele>12.15</ele>
        <time>2022-04-03T12:18:46Z</time>
      </trkpt>
      <trkpt lat="43.53775" lon="-1.01096">
        <ele>12.15</ele>
        <time>2022-04-03T12:19:03Z</time>
      </trkpt>
      <trkpt lat="43.53759" lon="-1.01106">
        <ele>12.15</ele>
        <time>2022-04-03T12:19:23Z</time>
      </trkpt>
      <trkpt lat="43.53738" lon="-1.01116">
        <ele>10.71</ele>
        <time>2022-04-03T12:19:42Z</time>
      </trkpt>
      <trkpt lat="43.53717" lon="-1.01125">
        <ele>10.71</ele>
        <time>2022-04-03T12:20:02Z</time>
      </trkpt>
      <trkpt lat="43.53699" lon="-1.01135">
        <ele>10.23</ele>
        <time>2022-04-03T12:20:19Z</time>
      </trkpt>
      <trkpt lat="43.53679" lon="-1.0114">
        <ele>9.75</ele>
        <time>2022-04-03T12:20:38Z</time>
      </trkpt>
      <trkpt lat="43.53658" lon="-1.01149">
        <ele>9.27</ele>
        <time>2022-04-03T12:20:57Z</time>
      </trkpt>
      <trkpt lat="43.53654" lon="-1.01151">
        <ele>9.27</ele>
        <time>2022-04-03T12:21:01Z</time>
      </trkpt>
      <trkpt lat="43.53634" lon="-1.01158">
        <ele>8.79</ele>
        <time>2022-04-03T12:21:19Z</time>
      </trkpt>
      <trkpt lat="43.53624" lon="-1.01164">
        <ele>8.79</ele>
        <time>2022-04-03T12:21:30Z</time>
      </trkpt>
      <trkpt lat="43.53621" lon="-1.01169">
        <ele>8.79</ele>
        <time>2022-04-03T12:21:34Z</time>
      </trkpt>
      <trkpt lat="43.53612" lon="-1.01173">
        <ele>8.79</ele>
        <time>2022-04-03T12:21:43Z</time>
      </trkpt>
      <trkpt lat="43.53597" lon="-1.01175">
        <ele>8.31</ele>
        <time>2022-04-03T12:21:58Z</time>
      </trkpt>
      <trkpt lat="43.5358" lon="-1.01182">
        <ele>8.31</ele>
        <time>2022-04-03T12:22:15Z</time>
      </trkpt>
      <trkpt lat="43.53559" lon="-1.0119">
        <ele>10.23</ele>
        <time>2022-04-03T12:22:35Z</time>
      </trkpt>
      <trkpt lat="43.5354" lon="-1.012">
        <ele>10.23</ele>
        <time>2022-04-03T12:22:53Z</time>
      </trkpt>
      <trkpt lat="43.53521" lon="-1.01208">
        <ele>10.23</ele>
        <time>2022-04-03T12:23:10Z</time>
      </trkpt>
      <trkpt lat="43.53505" lon="-1.01214">
        <ele>11.19</ele>
        <time>2022-04-03T12:23:26Z</time>
      </trkpt>
      <trkpt lat="43.53498" lon="-1.01224">
        <ele>11.19</ele>
        <time>2022-04-03T12:23:41Z</time>
      </trkpt>
      <trkpt lat="43.53498" lon="-1.01226">
        <ele>11.19</ele>
        <time>2022-04-03T12:24:15Z</time>
      </trkpt>
      <trkpt lat="43.53498" lon="-1.01225">
        <ele>11.19</ele>
        <time>2022-04-03T12:24:46Z</time>
      </trkpt>
      <trkpt lat="43.53494" lon="-1.01222">
        <ele>11.19</ele>
        <time>2022-04-03T12:25:07Z</time>
      </trkpt>
      <trkpt lat="43.53476" lon="-1.01225">
        <ele>12.15</ele>
        <time>2022-04-03T12:25:24Z</time>
      </trkpt>
      <trkpt lat="43.53459" lon="-1.0123">
        <ele>12.63</ele>
        <time>2022-04-03T12:25:40Z</time>
      </trkpt>
      <trkpt lat="43.53439" lon="-1.0124">
        <ele>13.12</ele>
        <time>2022-04-03T12:25:59Z</time>
      </trkpt>
      <trkpt lat="43.53427" lon="-1.01249">
        <ele>13.6</ele>
        <time>2022-04-03T12:26:11Z</time>
      </trkpt>
      <trkpt lat="43.53425" lon="-1.01252">
        <ele>13.6</ele>
        <time>2022-04-03T12:26:14Z</time>
      </trkpt>
      <trkpt lat="43.53426" lon="-1.01282">
        <ele>14.56</ele>
        <time>2022-04-03T12:26:32Z</time>
      </trkpt>
      <trkpt lat="43.53428" lon="-1.01313">
        <ele>14.56</ele>
        <time>2022-04-03T12:26:51Z</time>
      </trkpt>
      <trkpt lat="43.5343" lon="-1.01334">
        <ele>13.12</ele>
        <time>2022-04-03T12:27:05Z</time>
      </trkpt>
      <trkpt lat="43.53441" lon="-1.01361">
        <ele>13.12</ele>
        <time>2022-04-03T12:27:25Z</time>
      </trkpt>
      <trkpt lat="43.53446" lon="-1.01373">
        <ele>13.12</ele>
        <time>2022-04-03T12:27:39Z</time>
      </trkpt>
      <trkpt lat="43.53449" lon="-1.01379">
        <ele>13.12</ele>
        <time>2022-04-03T12:27:59Z</time>
      </trkpt>
      <trkpt lat="43.53445" lon="-1.01374">
        <ele>13.12</ele>
        <time>2022-04-03T12:28:31Z</time>
      </trkpt>
      <trkpt lat="43.5344" lon="-1.01383">
        <ele>13.12</ele>
        <time>2022-04-03T12:28:46Z</time>
      </trkpt>
      <trkpt lat="43.53438" lon="-1.01386">
        <ele>13.12</ele>
        <time>2022-04-03T12:28:49Z</time>
      </trkpt>
      <trkpt lat="43.53423" lon="-1.01398">
        <ele>13.12</ele>
        <time>2022-04-03T12:29:06Z</time>
      </trkpt>
      <trkpt lat="43.53423" lon="-1.01399">
        <ele>13.12</ele>
        <time>2022-04-03T12:29:07Z</time>
      </trkpt>
      <trkpt lat="43.53418" lon="-1.01422">
        <ele>13.12</ele>
        <time>2022-04-03T12:29:24Z</time>
      </trkpt>
      <trkpt lat="43.53417" lon="-1.0145">
        <ele>12.63</ele>
        <time>2022-04-03T12:29:42Z</time>
      </trkpt>
      <trkpt lat="43.53418" lon="-1.01456">
        <ele>12.15</ele>
        <time>2022-04-03T12:29:46Z</time>
      </trkpt>
      <trkpt lat="43.53418" lon="-1.01482">
        <ele>12.15</ele>
        <time>2022-04-03T12:30:04Z</time>
      </trkpt>
      <trkpt lat="43.53419" lon="-1.01495">
        <ele>12.15</ele>
        <time>2022-04-03T12:30:13Z</time>
      </trkpt>
      <trkpt lat="43.53423" lon="-1.01517">
        <ele>12.15</ele>
        <time>2022-04-03T12:30:28Z</time>
      </trkpt>
      <trkpt lat="43.53387" lon="-1.0152">
        <ele>17</ele>
      </trkpt>
      <trkpt lat="43.53352" lon="-1.01519">
        <ele>16.8</ele>
      </trkpt>
      <trkpt lat="43.53311" lon="-1.01528">
        <ele>16</ele>
      </trkpt>
      <trkpt lat="43.53285" lon="-1.0155">
        <ele>16</ele>
      </trkpt>
      <trkpt lat="43.53268" lon="-1.01597">
        <ele>16</ele>
      </trkpt>
      <trkpt lat="43.5324" lon="-1.01632">
        <ele>16.3</ele>
      </trkpt>
      <trkpt lat="43.53208" lon="-1.01661">
        <ele>18.8</ele>
      </trkpt>
      <trkpt lat="43.5318" lon="-1.0168">
        <ele>20.5</ele>
      </trkpt>
      <trkpt lat="43.53145" lon="-1.01678">
        <ele>21</ele>
      </trkpt>
      <trkpt lat="43.5311" lon="-1.01707">
        <ele>20.4</ele>
      </trkpt>
      <trkpt lat="43.53072" lon="-1.01701">
        <ele>20.5</ele>
      </trkpt>
      <trkpt lat="43.53085" lon="-1.0178">
        <ele>20.1</ele>
      </trkpt>
      <trkpt lat="43.53088" lon="-1.01808">
        <ele>15.04</ele>
        <time>2022-04-03T12:45:04Z</time>
      </trkpt>
      <trkpt lat="43.53068" lon="-1.01817">
        <ele>15.04</ele>
        <time>2022-04-03T12:45:23Z</time>
      </trkpt>
      <trkpt lat="43.5305" lon="-1.01834">
        <ele>15.04</ele>
        <time>2022-04-03T12:45:42Z</time>
      </trkpt>
      <trkpt lat="43.53034" lon="-1.01849">
        <ele>15.04</ele>
        <time>2022-04-03T12:45:58Z</time>
      </trkpt>
      <trkpt lat="43.53015" lon="-1.01866">
        <ele>14.56</ele>
        <time>2022-04-03T12:46:16Z</time>
      </trkpt>
      <trkpt lat="43.53" lon="-1.01881">
        <ele>14.56</ele>
        <time>2022-04-03T12:46:33Z</time>
      </trkpt>
      <trkpt lat="43.5299" lon="-1.0189">
        <ele>14.56</ele>
        <time>2022-04-03T12:46:46Z</time>
      </trkpt>
      <trkpt lat="43.52974" lon="-1.01905">
        <ele>14.56</ele>
        <time>2022-04-03T12:47:03Z</time>
      </trkpt>
      <trkpt lat="43.52958" lon="-1.01925">
        <ele>14.56</ele>
        <time>2022-04-03T12:47:24Z</time>
      </trkpt>
      <trkpt lat="43.52949" lon="-1.01934">
        <ele>15.52</ele>
        <time>2022-04-03T12:47:44Z</time>
      </trkpt>
      <trkpt lat="43.5295" lon="-1.01932">
        <ele>15.52</ele>
        <time>2022-04-03T12:48:04Z</time>
      </trkpt>
      <trkpt lat="43.52949" lon="-1.01936">
        <ele>15.52</ele>
        <time>2022-04-03T12:48:24Z</time>
      </trkpt>
      <trkpt lat="43.52946" lon="-1.01942">
        <ele>15.52</ele>
        <time>2022-04-03T12:48:36Z</time>
      </trkpt>
      <trkpt lat="43.52936" lon="-1.01958">
        <ele>15.52</ele>
        <time>2022-04-03T12:48:54Z</time>
      </trkpt>
      <trkpt lat="43.52921" lon="-1.01978">
        <ele>15.52</ele>
        <time>2022-04-03T12:49:13Z</time>
      </trkpt>
      <trkpt lat="43.52915" lon="-1.01985">
        <ele>15.52</ele>
        <time>2022-04-03T12:49:20Z</time>
      </trkpt>
      <trkpt lat="43.52913" lon="-1.0199">
        <ele>15.52</ele>
        <time>2022-04-03T12:49:24Z</time>
      </trkpt>
      <trkpt lat="43.52897" lon="-1.02011">
        <ele>15.52</ele>
        <time>2022-04-03T12:49:45Z</time>
      </trkpt>
      <trkpt lat="43.52883" lon="-1.02027">
        <ele>15.52</ele>
        <time>2022-04-03T12:50:02Z</time>
      </trkpt>
      <trkpt lat="43.5287" lon="-1.02048">
        <ele>14.56</ele>
        <time>2022-04-03T12:50:21Z</time>
      </trkpt>
      <trkpt lat="43.52857" lon="-1.02073">
        <ele>13.6</ele>
        <time>2022-04-03T12:50:41Z</time>
      </trkpt>
      <trkpt lat="43.52843" lon="-1.02094">
        <ele>13.6</ele>
        <time>2022-04-03T12:51:00Z</time>
      </trkpt>
      <trkpt lat="43.52841" lon="-1.02097">
        <ele>13.6</ele>
        <time>2022-04-03T12:51:12Z</time>
      </trkpt>
      <trkpt lat="43.52836" lon="-1.02102">
        <ele>13.6</ele>
        <time>2022-04-03T12:51:22Z</time>
      </trkpt>
      <trkpt lat="43.52832" lon="-1.02105">
        <ele>13.6</ele>
        <time>2022-04-03T12:51:29Z</time>
      </trkpt>
      <trkpt lat="43.52814" lon="-1.02123">
        <ele>13.6</ele>
        <time>2022-04-03T12:51:49Z</time>
      </trkpt>
      <trkpt lat="43.52801" lon="-1.02136">
        <ele>15.52</ele>
        <time>2022-04-03T12:52:05Z</time>
      </trkpt>
      <trkpt lat="43.52785" lon="-1.02163">
        <ele>15.52</ele>
        <time>2022-04-03T12:52:27Z</time>
      </trkpt>
      <trkpt lat="43.52772" lon="-1.02188">
        <ele>15.52</ele>
        <time>2022-04-03T12:52:47Z</time>
      </trkpt>
      <trkpt lat="43.52755" lon="-1.02205">
        <ele>16.48</ele>
        <time>2022-04-03T12:53:05Z</time>
      </trkpt>
      <trkpt lat="43.52748" lon="-1.0221">
        <ele>16.48</ele>
        <time>2022-04-03T12:53:12Z</time>
      </trkpt>
      <trkpt lat="43.52733" lon="-1.02224">
        <ele>17.44</ele>
        <time>2022-04-03T12:53:28Z</time>
      </trkpt>
      <trkpt lat="43.52729" lon="-1.02226">
        <ele>17.44</ele>
        <time>2022-04-03T12:53:33Z</time>
      </trkpt>
      <trkpt lat="43.52713" lon="-1.02239">
        <ele>17.92</ele>
        <time>2022-04-03T12:53:49Z</time>
      </trkpt>
      <trkpt lat="43.52698" lon="-1.02248">
        <ele>18.88</ele>
        <time>2022-04-03T12:54:03Z</time>
      </trkpt>
      <trkpt lat="43.52682" lon="-1.02256">
        <ele>19.84</ele>
        <time>2022-04-03T12:54:19Z</time>
      </trkpt>
      <trkpt lat="43.52668" lon="-1.02272">
        <ele>20.81</ele>
        <time>2022-04-03T12:54:32Z</time>
      </trkpt>
      <trkpt lat="43.52655" lon="-1.02282">
        <ele>21.77</ele>
        <time>2022-04-03T12:54:48Z</time>
      </trkpt>
      <trkpt lat="43.52642" lon="-1.02289">
        <ele>21.77</ele>
        <time>2022-04-03T12:55:01Z</time>
      </trkpt>
      <trkpt lat="43.52632" lon="-1.0229">
        <ele>22.25</ele>
        <time>2022-04-03T12:55:11Z</time>
      </trkpt>
      <trkpt lat="43.52621" lon="-1.02281">
        <ele>23.21</ele>
        <time>2022-04-03T12:55:24Z</time>
      </trkpt>
      <trkpt lat="43.52612" lon="-1.02269">
        <ele>24.65</ele>
        <time>2022-04-03T12:55:36Z</time>
      </trkpt>
      <trkpt lat="43.52607" lon="-1.02262">
        <ele>25.13</ele>
        <time>2022-04-03T12:55:43Z</time>
      </trkpt>
      <trkpt lat="43.52595" lon="-1.02247">
        <ele>27.05</ele>
        <time>2022-04-03T12:56:00Z</time>
      </trkpt>
      <trkpt lat="43.52588" lon="-1.02237">
        <ele>28.02</ele>
        <time>2022-04-03T12:56:10Z</time>
      </trkpt>
      <trkpt lat="43.52578" lon="-1.02231">
        <ele>29.94</ele>
        <time>2022-04-03T12:56:25Z</time>
      </trkpt>
      <trkpt lat="43.52575" lon="-1.02234">
        <ele>30.42</ele>
        <time>2022-04-03T12:56:40Z</time>
      </trkpt>
      <trkpt lat="43.52564" lon="-1.02237">
        <ele>32.34</ele>
        <time>2022-04-03T12:56:54Z</time>
      </trkpt>
      <trkpt lat="43.52547" lon="-1.02244">
        <ele>34.26</ele>
        <time>2022-04-03T12:57:12Z</time>
      </trkpt>
      <trkpt lat="43.52541" lon="-1.02248">
        <ele>36.19</ele>
        <time>2022-04-03T12:57:24Z</time>
      </trkpt>
      <trkpt lat="43.52531" lon="-1.02255">
        <ele>39.07</ele>
        <time>2022-04-03T12:57:40Z</time>
      </trkpt>
      <trkpt lat="43.52522" lon="-1.02261">
        <ele>40.99</ele>
        <time>2022-04-03T12:57:54Z</time>
      </trkpt>
      <trkpt lat="43.52511" lon="-1.02265">
        <ele>43.4</ele>
        <time>2022-04-03T12:58:09Z</time>
      </trkpt>
      <trkpt lat="43.52498" lon="-1.02266">
        <ele>44.84</ele>
        <time>2022-04-03T12:58:21Z</time>
      </trkpt>
      <trkpt lat="43.52488" lon="-1.0226">
        <ele>47.72</ele>
        <time>2022-04-03T12:58:36Z</time>
      </trkpt>
      <trkpt lat="43.52478" lon="-1.02252">
        <ele>48.68</ele>
        <time>2022-04-03T12:58:52Z</time>
      </trkpt>
      <trkpt lat="43.5247" lon="-1.02238">
        <ele>50.61</ele>
        <time>2022-04-03T12:59:05Z</time>
      </trkpt>
      <trkpt lat="43.52461" lon="-1.02225">
        <ele>52.05</ele>
        <time>2022-04-03T12:59:20Z</time>
      </trkpt>
      <trkpt lat="43.52453" lon="-1.02208">
        <ele>53.01</ele>
        <time>2022-04-03T12:59:36Z</time>
      </trkpt>
      <trkpt lat="43.5245" lon="-1.02193">
        <ele>54.45</ele>
        <time>2022-04-03T12:59:50Z</time>
      </trkpt>
      <trkpt lat="43.52445" lon="-1.02177">
        <ele>55.41</ele>
        <time>2022-04-03T13:00:03Z</time>
      </trkpt>
      <trkpt lat="43.52438" lon="-1.02162">
        <ele>55.89</ele>
        <time>2022-04-03T13:00:18Z</time>
      </trkpt>
      <trkpt lat="43.52427" lon="-1.02151">
        <ele>57.34</ele>
        <time>2022-04-03T13:00:32Z</time>
      </trkpt>
      <trkpt lat="43.52423" lon="-1.02148">
        <ele>58.3</ele>
        <time>2022-04-03T13:00:37Z</time>
      </trkpt>
      <trkpt lat="43.52412" lon="-1.02134">
        <ele>60.7</ele>
        <time>2022-04-03T13:00:54Z</time>
      </trkpt>
      <trkpt lat="43.52404" lon="-1.02123">
        <ele>62.14</ele>
        <time>2022-04-03T13:01:07Z</time>
      </trkpt>
      <trkpt lat="43.52399" lon="-1.02112">
        <ele>63.58</ele>
        <time>2022-04-03T13:01:18Z</time>
      </trkpt>
      <trkpt lat="43.52387" lon="-1.02096">
        <ele>65.03</ele>
        <time>2022-04-03T13:01:35Z</time>
      </trkpt>
      <trkpt lat="43.52379" lon="-1.02084">
        <ele>66.95</ele>
        <time>2022-04-03T13:01:48Z</time>
      </trkpt>
      <trkpt lat="43.52368" lon="-1.02073">
        <ele>68.87</ele>
        <time>2022-04-03T13:02:04Z</time>
      </trkpt>
      <trkpt lat="43.52359" lon="-1.02068">
        <ele>70.79</ele>
        <time>2022-04-03T13:02:15Z</time>
      </trkpt>
      <trkpt lat="43.52346" lon="-1.02066">
        <ele>72.24</ele>
        <time>2022-04-03T13:02:29Z</time>
      </trkpt>
      <trkpt lat="43.52342" lon="-1.02069">
        <ele>72.24</ele>
        <time>2022-04-03T13:02:46Z</time>
      </trkpt>
      <trkpt lat="43.52344" lon="-1.02066">
        <ele>73.2</ele>
        <time>2022-04-03T13:03:15Z</time>
      </trkpt>
      <trkpt lat="43.5234" lon="-1.02066">
        <ele>73.2</ele>
        <time>2022-04-03T13:03:40Z</time>
      </trkpt>
      <trkpt lat="43.52326" lon="-1.02072">
        <ele>73.2</ele>
        <time>2022-04-03T13:03:54Z</time>
      </trkpt>
      <trkpt lat="43.52313" lon="-1.02082">
        <ele>74.64</ele>
        <time>2022-04-03T13:04:08Z</time>
      </trkpt>
      <trkpt lat="43.52299" lon="-1.02087">
        <ele>76.08</ele>
        <time>2022-04-03T13:04:25Z</time>
      </trkpt>
      <trkpt lat="43.52285" lon="-1.02088">
        <ele>77.04</ele>
        <time>2022-04-03T13:04:40Z</time>
      </trkpt>
      <trkpt lat="43.5227" lon="-1.02086">
        <ele>77.52</ele>
        <time>2022-04-03T13:04:54Z</time>
      </trkpt>
      <trkpt lat="43.52265" lon="-1.02087">
        <ele>78</ele>
        <time>2022-04-03T13:04:58Z</time>
      </trkpt>
      <trkpt lat="43.52244" lon="-1.02085">
        <ele>78</ele>
        <time>2022-04-03T13:05:16Z</time>
      </trkpt>
      <trkpt lat="43.52228" lon="-1.02081">
        <ele>78.97</ele>
        <time>2022-04-03T13:05:33Z</time>
      </trkpt>
      <trkpt lat="43.52215" lon="-1.02078">
        <ele>80.41</ele>
        <time>2022-04-03T13:05:48Z</time>
      </trkpt>
      <trkpt lat="43.522" lon="-1.02076">
        <ele>81.37</ele>
        <time>2022-04-03T13:06:03Z</time>
      </trkpt>
      <trkpt lat="43.52183" lon="-1.02072">
        <ele>84.25</ele>
        <time>2022-04-03T13:06:22Z</time>
      </trkpt>
      <trkpt lat="43.52171" lon="-1.02067">
        <ele>84.73</ele>
        <time>2022-04-03T13:06:36Z</time>
      </trkpt>
      <trkpt lat="43.52156" lon="-1.02059">
        <ele>87.14</ele>
        <time>2022-04-03T13:06:52Z</time>
      </trkpt>
      <trkpt lat="43.52143" lon="-1.02053">
        <ele>89.06</ele>
        <time>2022-04-03T13:07:08Z</time>
      </trkpt>
      <trkpt lat="43.52131" lon="-1.02045">
        <ele>90.5</ele>
        <time>2022-04-03T13:07:21Z</time>
      </trkpt>
      <trkpt lat="43.52118" lon="-1.02039">
        <ele>92.42</ele>
        <time>2022-04-03T13:07:35Z</time>
      </trkpt>
      <trkpt lat="43.52111" lon="-1.02036">
        <ele>92.9</ele>
        <time>2022-04-03T13:07:51Z</time>
      </trkpt>
      <trkpt lat="43.52099" lon="-1.02026">
        <ele>95.31</ele>
        <time>2022-04-03T13:08:06Z</time>
      </trkpt>
      <trkpt lat="43.52086" lon="-1.02014">
        <ele>97.71</ele>
        <time>2022-04-03T13:08:23Z</time>
      </trkpt>
      <trkpt lat="43.52077" lon="-1.02002">
        <ele>98.67</ele>
        <time>2022-04-03T13:08:37Z</time>
      </trkpt>
      <trkpt lat="43.52067" lon="-1.02004">
        <ele>100.11</ele>
        <time>2022-04-03T13:08:51Z</time>
      </trkpt>
      <trkpt lat="43.52068" lon="-1.02014">
        <ele>100.6</ele>
        <time>2022-04-03T13:09:07Z</time>
      </trkpt>
      <trkpt lat="43.5207" lon="-1.02023">
        <ele>101.08</ele>
        <time>2022-04-03T13:09:21Z</time>
      </trkpt>
      <trkpt lat="43.52071" lon="-1.02042">
        <ele>102.04</ele>
        <time>2022-04-03T13:09:37Z</time>
      </trkpt>
      <trkpt lat="43.52069" lon="-1.02059">
        <ele>103.48</ele>
        <time>2022-04-03T13:09:52Z</time>
      </trkpt>
      <trkpt lat="43.52066" lon="-1.02076">
        <ele>104.44</ele>
        <time>2022-04-03T13:10:08Z</time>
      </trkpt>
      <trkpt lat="43.52063" lon="-1.02097">
        <ele>105.88</ele>
        <time>2022-04-03T13:10:26Z</time>
      </trkpt>
      <trkpt lat="43.52058" lon="-1.02122">
        <ele>106.84</ele>
        <time>2022-04-03T13:10:45Z</time>
      </trkpt>
      <trkpt lat="43.52052" lon="-1.02142">
        <ele>107.32</ele>
        <time>2022-04-03T13:11:00Z</time>
      </trkpt>
      <trkpt lat="43.5205" lon="-1.02168">
        <ele>107.81</ele>
        <time>2022-04-03T13:11:14Z</time>
      </trkpt>
      <trkpt lat="43.52048" lon="-1.02185">
        <ele>107.81</ele>
        <time>2022-04-03T13:11:25Z</time>
      </trkpt>
      <trkpt lat="43.52039" lon="-1.02199">
        <ele>108.29</ele>
        <time>2022-04-03T13:11:38Z</time>
      </trkpt>
      <trkpt lat="43.52029" lon="-1.02212">
        <ele>109.25</ele>
        <time>2022-04-03T13:11:51Z</time>
      </trkpt>
      <trkpt lat="43.5202" lon="-1.0222">
        <ele>110.21</ele>
        <time>2022-04-03T13:12:05Z</time>
      </trkpt>
      <trkpt lat="43.52006" lon="-1.02236">
        <ele>112.61</ele>
        <time>2022-04-03T13:12:21Z</time>
      </trkpt>
      <trkpt lat="43.52006" lon="-1.02238">
        <ele>113.09</ele>
        <time>2022-04-03T13:12:39Z</time>
      </trkpt>
      <trkpt lat="43.51996" lon="-1.02247">
        <ele>113.09</ele>
        <time>2022-04-03T13:12:56Z</time>
      </trkpt>
      <trkpt lat="43.51982" lon="-1.02265">
        <ele>113.09</ele>
        <time>2022-04-03T13:13:10Z</time>
      </trkpt>
      <trkpt lat="43.51972" lon="-1.02278">
        <ele>113.57</ele>
        <time>2022-04-03T13:13:28Z</time>
      </trkpt>
      <trkpt lat="43.51963" lon="-1.0229">
        <ele>113.09</ele>
        <time>2022-04-03T13:13:42Z</time>
      </trkpt>
      <trkpt lat="43.5196" lon="-1.02288">
        <ele>113.09</ele>
        <time>2022-04-03T13:14:06Z</time>
      </trkpt>
      <trkpt lat="43.51954" lon="-1.02292">
        <ele>112.13</ele>
        <time>2022-04-03T13:14:22Z</time>
      </trkpt>
      <trkpt lat="43.51945" lon="-1.02298">
        <ele>111.65</ele>
        <time>2022-04-03T13:14:36Z</time>
      </trkpt>
      <trkpt lat="43.51935" lon="-1.02309">
        <ele>111.65</ele>
        <time>2022-04-03T13:14:50Z</time>
      </trkpt>
      <trkpt lat="43.51924" lon="-1.02319">
        <ele>110.21</ele>
        <time>2022-04-03T13:15:05Z</time>
      </trkpt>
      <trkpt lat="43.51913" lon="-1.02329">
        <ele>107.81</ele>
        <time>2022-04-03T13:15:20Z</time>
      </trkpt>
      <trkpt lat="43.51901" lon="-1.02343">
        <ele>104.92</ele>
        <time>2022-04-03T13:15:38Z</time>
      </trkpt>
      <trkpt lat="43.51895" lon="-1.02353">
        <ele>103</ele>
        <time>2022-04-03T13:15:53Z</time>
      </trkpt>
      <trkpt lat="43.51898" lon="-1.02355">
        <ele>103</ele>
        <time>2022-04-03T13:16:15Z</time>
      </trkpt>
      <trkpt lat="43.51897" lon="-1.02348">
        <ele>102.52</ele>
        <time>2022-04-03T13:16:35Z</time>
      </trkpt>
      <trkpt lat="43.5188" lon="-1.02348">
        <ele>102.52</ele>
        <time>2022-04-03T13:17:06Z</time>
      </trkpt>
      <trkpt lat="43.5189" lon="-1.02373">
        <ele>102.52</ele>
        <time>2022-04-03T13:17:21Z</time>
      </trkpt>
      <trkpt lat="43.51903" lon="-1.02391">
        <ele>101.08</ele>
        <time>2022-04-03T13:17:35Z</time>
      </trkpt>
      <trkpt lat="43.51918" lon="-1.024">
        <ele>98.67</ele>
        <time>2022-04-03T13:17:51Z</time>
      </trkpt>
      <trkpt lat="43.51926" lon="-1.02418">
        <ele>97.71</ele>
        <time>2022-04-03T13:18:06Z</time>
      </trkpt>
      <trkpt lat="43.51932" lon="-1.02432">
        <ele>97.23</ele>
        <time>2022-04-03T13:18:18Z</time>
      </trkpt>
      <trkpt lat="43.51944" lon="-1.02446">
        <ele>95.79</ele>
        <time>2022-04-03T13:18:34Z</time>
      </trkpt>
      <trkpt lat="43.51946" lon="-1.02446">
        <ele>95.79</ele>
        <time>2022-04-03T13:18:54Z</time>
      </trkpt>
      <trkpt lat="43.51946" lon="-1.02445">
        <ele>96.27</ele>
        <time>2022-04-03T13:19:07Z</time>
      </trkpt>
      <trkpt lat="43.51939" lon="-1.02459">
        <ele>96.27</ele>
        <time>2022-04-03T13:19:42Z</time>
      </trkpt>
      <trkpt lat="43.51949" lon="-1.02457">
        <ele>96.27</ele>
        <time>2022-04-03T13:20:10Z</time>
      </trkpt>
      <trkpt lat="43.51948" lon="-1.02459">
        <ele>96.27</ele>
        <time>2022-04-03T13:20:23Z</time>
      </trkpt>
      <trkpt lat="43.51952" lon="-1.02468">
        <ele>95.31</ele>
        <time>2022-04-03T13:20:37Z</time>
      </trkpt>
      <trkpt lat="43.51959" lon="-1.02491">
        <ele>94.83</ele>
        <time>2022-04-03T13:20:54Z</time>
      </trkpt>
      <trkpt lat="43.51969" lon="-1.0251">
        <ele>94.35</ele>
        <time>2022-04-03T13:21:08Z</time>
      </trkpt>
      <trkpt lat="43.51972" lon="-1.02514">
        <ele>94.35</ele>
        <time>2022-04-03T13:21:13Z</time>
      </trkpt>
      <trkpt lat="43.51981" lon="-1.02525">
        <ele>94.35</ele>
        <time>2022-04-03T13:21:28Z</time>
      </trkpt>
      <trkpt lat="43.51992" lon="-1.02543">
        <ele>94.35</ele>
        <time>2022-04-03T13:21:44Z</time>
      </trkpt>
      <trkpt lat="43.52004" lon="-1.02558">
        <ele>94.35</ele>
        <time>2022-04-03T13:22:00Z</time>
      </trkpt>
      <trkpt lat="43.52019" lon="-1.02575">
        <ele>92.9</ele>
        <time>2022-04-03T13:22:18Z</time>
      </trkpt>
      <trkpt lat="43.52033" lon="-1.02591">
        <ele>92.42</ele>
        <time>2022-04-03T13:22:36Z</time>
      </trkpt>
      <trkpt lat="43.5204" lon="-1.026">
        <ele>92.42</ele>
        <time>2022-04-03T13:22:47Z</time>
      </trkpt>
      <trkpt lat="43.52053" lon="-1.02616">
        <ele>91.94</ele>
        <time>2022-04-03T13:23:03Z</time>
      </trkpt>
      <trkpt lat="43.52054" lon="-1.02635">
        <ele>90.98</ele>
        <time>2022-04-03T13:23:21Z</time>
      </trkpt>
      <trkpt lat="43.52061" lon="-1.02652">
        <ele>90.98</ele>
        <time>2022-04-03T13:23:38Z</time>
      </trkpt>
      <trkpt lat="43.52065" lon="-1.02671">
        <ele>90.98</ele>
        <time>2022-04-03T13:23:52Z</time>
      </trkpt>
      <trkpt lat="43.52068" lon="-1.02688">
        <ele>90.98</ele>
        <time>2022-04-03T13:24:04Z</time>
      </trkpt>
      <trkpt lat="43.52074" lon="-1.02705">
        <ele>90.02</ele>
        <time>2022-04-03T13:24:19Z</time>
      </trkpt>
      <trkpt lat="43.52079" lon="-1.02716">
        <ele>89.54</ele>
        <time>2022-04-03T13:24:36Z</time>
      </trkpt>
      <trkpt lat="43.52085" lon="-1.02731">
        <ele>89.06</ele>
        <time>2022-04-03T13:24:51Z</time>
      </trkpt>
      <trkpt lat="43.52092" lon="-1.02746">
        <ele>88.58</ele>
        <time>2022-04-03T13:25:05Z</time>
      </trkpt>
      <trkpt lat="43.52097" lon="-1.02759">
        <ele>88.1</ele>
        <time>2022-04-03T13:25:18Z</time>
      </trkpt>
      <trkpt lat="43.521" lon="-1.0277">
        <ele>87.62</ele>
        <time>2022-04-03T13:25:37Z</time>
      </trkpt>
      <trkpt lat="43.52106" lon="-1.02789">
        <ele>87.14</ele>
        <time>2022-04-03T13:25:54Z</time>
      </trkpt>
      <trkpt lat="43.5211" lon="-1.028">
        <ele>86.66</ele>
        <time>2022-04-03T13:26:09Z</time>
      </trkpt>
      <trkpt lat="43.52109" lon="-1.02817">
        <ele>85.69</ele>
        <time>2022-04-03T13:26:24Z</time>
      </trkpt>
      <trkpt lat="43.52113" lon="-1.02837">
        <ele>85.69</ele>
        <time>2022-04-03T13:26:40Z</time>
      </trkpt>
      <trkpt lat="43.5212" lon="-1.02856">
        <ele>85.69</ele>
        <time>2022-04-03T13:26:54Z</time>
      </trkpt>
      <trkpt lat="43.52124" lon="-1.02873">
        <ele>85.21</ele>
        <time>2022-04-03T13:27:09Z</time>
      </trkpt>
      <trkpt lat="43.52127" lon="-1.02888">
        <ele>85.21</ele>
        <time>2022-04-03T13:27:20Z</time>
      </trkpt>
      <trkpt lat="43.5213" lon="-1.02898">
        <ele>86.18</ele>
        <time>2022-04-03T13:27:27Z</time>
      </trkpt>
      <trkpt lat="43.52142" lon="-1.02915">
        <ele>86.18</ele>
        <time>2022-04-03T13:27:41Z</time>
      </trkpt>
      <trkpt lat="43.52142" lon="-1.02917">
        <ele>86.18</ele>
        <time>2022-04-03T13:27:42Z</time>
      </trkpt>
      <trkpt lat="43.52144" lon="-1.02931">
        <ele>86.18</ele>
        <time>2022-04-03T13:27:56Z</time>
      </trkpt>
      <trkpt lat="43.52153" lon="-1.02954">
        <ele>86.18</ele>
        <time>2022-04-03T13:28:12Z</time>
      </trkpt>
      <trkpt lat="43.52163" lon="-1.0297">
        <ele>86.18</ele>
        <time>2022-04-03T13:28:25Z</time>
      </trkpt>
      <trkpt lat="43.52176" lon="-1.02987">
        <ele>84.25</ele>
        <time>2022-04-03T13:28:43Z</time>
      </trkpt>
      <trkpt lat="43.52185" lon="-1.03004">
        <ele>84.25</ele>
        <time>2022-04-03T13:28:58Z</time>
      </trkpt>
      <trkpt lat="43.52194" lon="-1.03014">
        <ele>82.33</ele>
        <time>2022-04-03T13:29:13Z</time>
      </trkpt>
      <trkpt lat="43.52211" lon="-1.03033">
        <ele>81.85</ele>
        <time>2022-04-03T13:29:32Z</time>
      </trkpt>
      <trkpt lat="43.52219" lon="-1.03051">
        <ele>81.85</ele>
        <time>2022-04-03T13:29:48Z</time>
      </trkpt>
      <trkpt lat="43.52226" lon="-1.03066">
        <ele>81.37</ele>
        <time>2022-04-03T13:30:02Z</time>
      </trkpt>
      <trkpt lat="43.52229" lon="-1.03077">
        <ele>81.37</ele>
        <time>2022-04-03T13:30:17Z</time>
      </trkpt>
      <trkpt lat="43.52237" lon="-1.03089">
        <ele>82.81</ele>
        <time>2022-04-03T13:30:29Z</time>
      </trkpt>
      <trkpt lat="43.52244" lon="-1.03105">
        <ele>82.81</ele>
        <time>2022-04-03T13:30:44Z</time>
      </trkpt>
      <trkpt lat="43.52254" lon="-1.03126">
        <ele>83.29</ele>
        <time>2022-04-03T13:31:00Z</time>
      </trkpt>
      <trkpt lat="43.5226" lon="-1.03137">
        <ele>83.29</ele>
        <time>2022-04-03T13:31:12Z</time>
      </trkpt>
      <trkpt lat="43.5227" lon="-1.03157">
        <ele>83.77</ele>
        <time>2022-04-03T13:31:29Z</time>
      </trkpt>
      <trkpt lat="43.52277" lon="-1.03175">
        <ele>83.77</ele>
        <time>2022-04-03T13:31:43Z</time>
      </trkpt>
      <trkpt lat="43.52289" lon="-1.03197">
        <ele>83.77</ele>
        <time>2022-04-03T13:32:00Z</time>
      </trkpt>
      <trkpt lat="43.52297" lon="-1.03216">
        <ele>82.33</ele>
        <time>2022-04-03T13:32:15Z</time>
      </trkpt>
      <trkpt lat="43.52304" lon="-1.03235">
        <ele>82.33</ele>
        <time>2022-04-03T13:32:30Z</time>
      </trkpt>
      <trkpt lat="43.52308" lon="-1.0326">
        <ele>81.85</ele>
        <time>2022-04-03T13:32:48Z</time>
      </trkpt>
      <trkpt lat="43.52315" lon="-1.03287">
        <ele>81.85</ele>
        <time>2022-04-03T13:33:06Z</time>
      </trkpt>
      <trkpt lat="43.52321" lon="-1.03309">
        <ele>81.85</ele>
        <time>2022-04-03T13:33:23Z</time>
      </trkpt>
      <trkpt lat="43.52326" lon="-1.03331">
        <ele>81.85</ele>
        <time>2022-04-03T13:33:39Z</time>
      </trkpt>
      <trkpt lat="43.52333" lon="-1.03358">
        <ele>81.85</ele>
        <time>2022-04-03T13:33:55Z</time>
      </trkpt>
      <trkpt lat="43.5234" lon="-1.03383">
        <ele>82.81</ele>
        <time>2022-04-03T13:34:12Z</time>
      </trkpt>
      <trkpt lat="43.52344" lon="-1.03394">
        <ele>83.29</ele>
        <time>2022-04-03T13:34:20Z</time>
      </trkpt>
      <trkpt lat="43.52355" lon="-1.03414">
        <ele>85.21</ele>
        <time>2022-04-03T13:34:38Z</time>
      </trkpt>
      <trkpt lat="43.52368" lon="-1.03427">
        <ele>86.66</ele>
        <time>2022-04-03T13:34:53Z</time>
      </trkpt>
      <trkpt lat="43.52379" lon="-1.03438">
        <ele>89.54</ele>
        <time>2022-04-03T13:35:10Z</time>
      </trkpt>
      <trkpt lat="43.52393" lon="-1.03449">
        <ele>91.94</ele>
        <time>2022-04-03T13:35:28Z</time>
      </trkpt>
      <trkpt lat="43.52408" lon="-1.0346">
        <ele>94.83</ele>
        <time>2022-04-03T13:35:45Z</time>
      </trkpt>
      <trkpt lat="43.52412" lon="-1.03469">
        <ele>95.79</ele>
        <time>2022-04-03T13:36:00Z</time>
      </trkpt>
      <trkpt lat="43.52419" lon="-1.03488">
        <ele>97.71</ele>
        <time>2022-04-03T13:36:16Z</time>
      </trkpt>
      <trkpt lat="43.52419" lon="-1.035">
        <ele>98.19</ele>
        <time>2022-04-03T13:36:31Z</time>
      </trkpt>
      <trkpt lat="43.52422" lon="-1.03507">
        <ele>98.19</ele>
        <time>2022-04-03T13:36:44Z</time>
      </trkpt>
      <trkpt lat="43.52422" lon="-1.03509">
        <ele>98.19</ele>
        <time>2022-04-03T13:37:09Z</time>
      </trkpt>
      <trkpt lat="43.52422" lon="-1.03508">
        <ele>98.19</ele>
        <time>2022-04-03T13:37:40Z</time>
      </trkpt>
      <trkpt lat="43.52416" lon="-1.03518">
        <ele>99.15</ele>
        <time>2022-04-03T13:37:53Z</time>
      </trkpt>
      <trkpt lat="43.52408" lon="-1.03542">
        <ele>99.63</ele>
        <time>2022-04-03T13:38:12Z</time>
      </trkpt>
      <trkpt lat="43.52403" lon="-1.03559">
        <ele>97.23</ele>
        <time>2022-04-03T13:38:27Z</time>
      </trkpt>
      <trkpt lat="43.52402" lon="-1.03564">
        <ele>97.23</ele>
        <time>2022-04-03T13:38:39Z</time>
      </trkpt>
      <trkpt lat="43.52394" lon="-1.03583">
        <ele>95.31</ele>
        <time>2022-04-03T13:38:56Z</time>
      </trkpt>
      <trkpt lat="43.52388" lon="-1.03598">
        <ele>93.39</ele>
        <time>2022-04-03T13:39:12Z</time>
      </trkpt>
      <trkpt lat="43.52378" lon="-1.03622">
        <ele>90.5</ele>
        <time>2022-04-03T13:39:32Z</time>
      </trkpt>
      <trkpt lat="43.52372" lon="-1.03641">
        <ele>88.58</ele>
        <time>2022-04-03T13:39:48Z</time>
      </trkpt>
      <trkpt lat="43.52366" lon="-1.03659">
        <ele>86.66</ele>
        <time>2022-04-03T13:40:04Z</time>
      </trkpt>
      <trkpt lat="43.52357" lon="-1.03684">
        <ele>85.21</ele>
        <time>2022-04-03T13:40:22Z</time>
      </trkpt>
      <trkpt lat="43.52349" lon="-1.03703">
        <ele>84.25</ele>
        <time>2022-04-03T13:40:37Z</time>
      </trkpt>
      <trkpt lat="43.52341" lon="-1.03732">
        <ele>84.25</ele>
        <time>2022-04-03T13:40:53Z</time>
      </trkpt>
      <trkpt lat="43.52336" lon="-1.03751">
        <ele>85.21</ele>
        <time>2022-04-03T13:41:08Z</time>
      </trkpt>
      <trkpt lat="43.52335" lon="-1.03773">
        <ele>85.69</ele>
        <time>2022-04-03T13:41:23Z</time>
      </trkpt>
      <trkpt lat="43.52335" lon="-1.03796">
        <ele>85.69</ele>
        <time>2022-04-03T13:41:40Z</time>
      </trkpt>
      <trkpt lat="43.52335" lon="-1.03801">
        <ele>83.77</ele>
        <time>2022-04-03T13:41:53Z</time>
      </trkpt>
      <trkpt lat="43.52335" lon="-1.03798">
        <ele>83.77</ele>
        <time>2022-04-03T13:41:55Z</time>
      </trkpt>
      <trkpt lat="43.52332" lon="-1.0379">
        <ele>85.21</ele>
        <time>2022-04-03T13:42:01Z</time>
      </trkpt>
      <trkpt lat="43.52327" lon="-1.03783">
        <ele>87.62</ele>
        <time>2022-04-03T13:42:16Z</time>
      </trkpt>
      <trkpt lat="43.52328" lon="-1.03783">
        <ele>86.18</ele>
        <time>2022-04-03T13:42:17Z</time>
      </trkpt>
      <trkpt lat="43.52332" lon="-1.03786">
        <ele>85.21</ele>
        <time>2022-04-03T13:42:22Z</time>
      </trkpt>
      <trkpt lat="43.52335" lon="-1.03791">
        <ele>85.21</ele>
        <time>2022-04-03T13:42:26Z</time>
      </trkpt>
      <trkpt lat="43.52336" lon="-1.03794">
        <ele>84.25</ele>
        <time>2022-04-03T13:42:29Z</time>
      </trkpt>
      <trkpt lat="43.52337" lon="-1.03797">
        <ele>84.25</ele>
        <time>2022-04-03T13:42:31Z</time>
      </trkpt>
      <trkpt lat="43.52338" lon="-1.03822">
        <ele>82.33</ele>
        <time>2022-04-03T13:42:49Z</time>
      </trkpt>
      <trkpt lat="43.5234" lon="-1.03832">
        <ele>80.89</ele>
        <time>2022-04-03T13:42:57Z</time>
      </trkpt>
      <trkpt lat="43.52348" lon="-1.03854">
        <ele>79.45</ele>
        <time>2022-04-03T13:43:14Z</time>
      </trkpt>
      <trkpt lat="43.52357" lon="-1.03874">
        <ele>77.04</ele>
        <time>2022-04-03T13:43:31Z</time>
      </trkpt>
      <trkpt lat="43.52368" lon="-1.03895">
        <ele>75.6</ele>
        <time>2022-04-03T13:43:49Z</time>
      </trkpt>
      <trkpt lat="43.52375" lon="-1.03915">
        <ele>73.68</ele>
        <time>2022-04-03T13:44:05Z</time>
      </trkpt>
      <trkpt lat="43.52379" lon="-1.03927">
        <ele>73.2</ele>
        <time>2022-04-03T13:44:16Z</time>
      </trkpt>
      <trkpt lat="43.52379" lon="-1.03944">
        <ele>73.68</ele>
        <time>2022-04-03T13:49:36Z</time>
      </trkpt>
      <trkpt lat="43.5239" lon="-1.03961">
        <ele>72.72</ele>
        <time>2022-04-03T13:49:53Z</time>
      </trkpt>
      <trkpt lat="43.52397" lon="-1.03979">
        <ele>72.24</ele>
        <time>2022-04-03T13:50:08Z</time>
      </trkpt>
      <trkpt lat="43.52407" lon="-1.04008">
        <ele>70.79</ele>
        <time>2022-04-03T13:50:27Z</time>
      </trkpt>
      <trkpt lat="43.52407" lon="-1.04014">
        <ele>70.79</ele>
        <time>2022-04-03T13:50:41Z</time>
      </trkpt>
      <trkpt lat="43.52411" lon="-1.0403">
        <ele>69.83</ele>
        <time>2022-04-03T13:50:57Z</time>
      </trkpt>
      <trkpt lat="43.5242" lon="-1.04049">
        <ele>68.87</ele>
        <time>2022-04-03T13:51:15Z</time>
      </trkpt>
      <trkpt lat="43.52423" lon="-1.04059">
        <ele>67.91</ele>
        <time>2022-04-03T13:51:31Z</time>
      </trkpt>
      <trkpt lat="43.5243" lon="-1.04082">
        <ele>66.47</ele>
        <time>2022-04-03T13:51:50Z</time>
      </trkpt>
      <trkpt lat="43.52439" lon="-1.04105">
        <ele>65.03</ele>
        <time>2022-04-03T13:52:09Z</time>
      </trkpt>
      <trkpt lat="43.52442" lon="-1.0411">
        <ele>65.03</ele>
        <time>2022-04-03T13:52:13Z</time>
      </trkpt>
      <trkpt lat="43.52452" lon="-1.04129">
        <ele>64.55</ele>
        <time>2022-04-03T13:52:31Z</time>
      </trkpt>
      <trkpt lat="43.52463" lon="-1.04147">
        <ele>63.58</ele>
        <time>2022-04-03T13:52:47Z</time>
      </trkpt>
      <trkpt lat="43.52473" lon="-1.04163">
        <ele>62.62</ele>
        <time>2022-04-03T13:53:03Z</time>
      </trkpt>
      <trkpt lat="43.52482" lon="-1.04181">
        <ele>61.66</ele>
        <time>2022-04-03T13:53:20Z</time>
      </trkpt>
      <trkpt lat="43.52492" lon="-1.04201">
        <ele>60.7</ele>
        <time>2022-04-03T13:53:38Z</time>
      </trkpt>
      <trkpt lat="43.52503" lon="-1.0422">
        <ele>59.74</ele>
        <time>2022-04-03T13:53:56Z</time>
      </trkpt>
      <trkpt lat="43.52517" lon="-1.04246">
        <ele>59.26</ele>
        <time>2022-04-03T13:54:17Z</time>
      </trkpt>
      <trkpt lat="43.52528" lon="-1.04264">
        <ele>58.3</ele>
        <time>2022-04-03T13:54:33Z</time>
      </trkpt>
      <trkpt lat="43.52538" lon="-1.04282">
        <ele>56.86</ele>
        <time>2022-04-03T13:54:49Z</time>
      </trkpt>
      <trkpt lat="43.5255" lon="-1.04302">
        <ele>54.93</ele>
        <time>2022-04-03T13:55:08Z</time>
      </trkpt>
      <trkpt lat="43.52558" lon="-1.04315">
        <ele>53.97</ele>
        <time>2022-04-03T13:55:21Z</time>
      </trkpt>
      <trkpt lat="43.52569" lon="-1.04333">
        <ele>52.53</ele>
        <time>2022-04-03T13:55:39Z</time>
      </trkpt>
      <trkpt lat="43.52583" lon="-1.04348">
        <ele>50.61</ele>
        <time>2022-04-03T13:55:55Z</time>
      </trkpt>
      <trkpt lat="43.52597" lon="-1.04359">
        <ele>47.72</ele>
        <time>2022-04-03T13:56:11Z</time>
      </trkpt>
      <trkpt lat="43.52609" lon="-1.04376">
        <ele>46.28</ele>
        <time>2022-04-03T13:56:27Z</time>
      </trkpt>
      <trkpt lat="43.52613" lon="-1.04382">
        <ele>45.32</ele>
        <time>2022-04-03T13:56:33Z</time>
      </trkpt>
      <trkpt lat="43.52626" lon="-1.04407">
        <ele>42.92</ele>
        <time>2022-04-03T13:56:52Z</time>
      </trkpt>
      <trkpt lat="43.52626" lon="-1.0441">
        <ele>42.92</ele>
        <time>2022-04-03T13:56:54Z</time>
      </trkpt>
      <trkpt lat="43.52629" lon="-1.04425">
        <ele>41.95</ele>
        <time>2022-04-03T13:57:09Z</time>
      </trkpt>
      <trkpt lat="43.52629" lon="-1.04427">
        <ele>41.47</ele>
        <time>2022-04-03T13:57:11Z</time>
      </trkpt>
      <trkpt lat="43.52627" lon="-1.04453">
        <ele>40.99</ele>
        <time>2022-04-03T13:57:27Z</time>
      </trkpt>
      <trkpt lat="43.52627" lon="-1.0447">
        <ele>40.51</ele>
        <time>2022-04-03T13:57:41Z</time>
      </trkpt>
      <trkpt lat="43.5263" lon="-1.04488">
        <ele>39.55</ele>
        <time>2022-04-03T13:57:55Z</time>
      </trkpt>
      <trkpt lat="43.52636" lon="-1.04509">
        <ele>38.11</ele>
        <time>2022-04-03T13:58:10Z</time>
      </trkpt>
      <trkpt lat="43.52639" lon="-1.04514">
        <ele>37.63</ele>
        <time>2022-04-03T13:58:15Z</time>
      </trkpt>
      <trkpt lat="43.52643" lon="-1.04522">
        <ele>36.67</ele>
        <time>2022-04-03T13:58:20Z</time>
      </trkpt>
      <trkpt lat="43.52658" lon="-1.04541">
        <ele>35.23</ele>
        <time>2022-04-03T13:58:37Z</time>
      </trkpt>
      <trkpt lat="43.5267" lon="-1.04557">
        <ele>31.86</ele>
        <time>2022-04-03T13:58:54Z</time>
      </trkpt>
      <trkpt lat="43.52676" lon="-1.04574">
        <ele>28.98</ele>
        <time>2022-04-03T13:59:11Z</time>
      </trkpt>
      <trkpt lat="43.5268" lon="-1.04584">
        <ele>28.02</ele>
        <time>2022-04-03T13:59:20Z</time>
      </trkpt>
      <trkpt lat="43.52686" lon="-1.04603">
        <ele>26.09</ele>
        <time>2022-04-03T13:59:34Z</time>
      </trkpt>
      <trkpt lat="43.5269" lon="-1.04612">
        <ele>26.09</ele>
        <time>2022-04-03T13:59:42Z</time>
      </trkpt>
      <trkpt lat="43.52692" lon="-1.04628">
        <ele>25.61</ele>
        <time>2022-04-03T13:59:56Z</time>
      </trkpt>
      <trkpt lat="43.52701" lon="-1.04653">
        <ele>23.69</ele>
        <time>2022-04-03T14:00:11Z</time>
      </trkpt>
      <trkpt lat="43.52708" lon="-1.04668">
        <ele>21.77</ele>
        <time>2022-04-03T14:00:24Z</time>
      </trkpt>
      <trkpt lat="43.52712" lon="-1.04671">
        <ele>21.29</ele>
        <time>2022-04-03T14:00:29Z</time>
      </trkpt>
      <trkpt lat="43.52727" lon="-1.04682">
        <ele>19.84</ele>
        <time>2022-04-03T14:00:44Z</time>
      </trkpt>
      <trkpt lat="43.52739" lon="-1.04701">
        <ele>18.88</ele>
        <time>2022-04-03T14:01:01Z</time>
      </trkpt>
      <trkpt lat="43.52743" lon="-1.04708">
        <ele>18.88</ele>
        <time>2022-04-03T14:01:07Z</time>
      </trkpt>
      <trkpt lat="43.5275" lon="-1.04727">
        <ele>18.4</ele>
        <time>2022-04-03T14:01:21Z</time>
      </trkpt>
      <trkpt lat="43.52759" lon="-1.04745">
        <ele>17.92</ele>
        <time>2022-04-03T14:01:36Z</time>
      </trkpt>
      <trkpt lat="43.52765" lon="-1.04756">
        <ele>17.92</ele>
        <time>2022-04-03T14:01:43Z</time>
      </trkpt>
      <trkpt lat="43.52775" lon="-1.04775">
        <ele>17.44</ele>
        <time>2022-04-03T14:01:58Z</time>
      </trkpt>
      <trkpt lat="43.52785" lon="-1.0479">
        <ele>16</ele>
        <time>2022-04-03T14:02:13Z</time>
      </trkpt>
      <trkpt lat="43.52794" lon="-1.04803">
        <ele>15.04</ele>
        <time>2022-04-03T14:02:27Z</time>
      </trkpt>
      <trkpt lat="43.52801" lon="-1.04813">
        <ele>14.08</ele>
        <time>2022-04-03T14:02:36Z</time>
      </trkpt>
      <trkpt lat="43.52804" lon="-1.04838">
        <ele>13.12</ele>
        <time>2022-04-03T14:02:54Z</time>
      </trkpt>
      <trkpt lat="43.52804" lon="-1.04838">
        <ele>13.12</ele>
        <time>2022-04-03T14:02:55Z</time>
      </trkpt>
      <trkpt lat="43.52803" lon="-1.04842">
        <ele>12.63</ele>
        <time>2022-04-03T14:02:58Z</time>
      </trkpt>
      <trkpt lat="43.52796" lon="-1.04861">
        <ele>12.15</ele>
        <time>2022-04-03T14:03:13Z</time>
      </trkpt>
      <trkpt lat="43.52794" lon="-1.04864">
        <ele>12.15</ele>
        <time>2022-04-03T14:03:27Z</time>
      </trkpt>
      <trkpt lat="43.52784" lon="-1.04878">
        <ele>12.15</ele>
        <time>2022-04-03T14:03:47Z</time>
      </trkpt>
      <trkpt lat="43.5277" lon="-1.04898">
        <ele>11.19</ele>
        <time>2022-04-03T14:04:06Z</time>
      </trkpt>
      <trkpt lat="43.52761" lon="-1.04908">
        <ele>11.19</ele>
        <time>2022-04-03T14:04:22Z</time>
      </trkpt>
      <trkpt lat="43.52752" lon="-1.04927">
        <ele>10.71</ele>
        <time>2022-04-03T14:04:39Z</time>
      </trkpt>
      <trkpt lat="43.52751" lon="-1.04934">
        <ele>10.23</ele>
        <time>2022-04-03T14:04:48Z</time>
      </trkpt>
      <trkpt lat="43.52755" lon="-1.04956">
        <ele>10.71</ele>
        <time>2022-04-03T14:05:03Z</time>
      </trkpt>
      <trkpt lat="43.52762" lon="-1.04975">
        <ele>10.71</ele>
        <time>2022-04-03T14:05:19Z</time>
      </trkpt>
      <trkpt lat="43.52764" lon="-1.04984">
        <ele>10.71</ele>
        <time>2022-04-03T14:05:26Z</time>
      </trkpt>
      <trkpt lat="43.52771" lon="-1.04997">
        <ele>10.71</ele>
        <time>2022-04-03T14:05:37Z</time>
      </trkpt>
      <trkpt lat="43.52773" lon="-1.04997">
        <ele>12.15</ele>
        <time>2022-04-03T14:05:39Z</time>
      </trkpt>
      <trkpt lat="43.52776" lon="-1.05002">
        <ele>11.19</ele>
        <time>2022-04-03T14:05:43Z</time>
      </trkpt>
      <trkpt lat="43.52788" lon="-1.05028">
        <ele>9.75</ele>
        <time>2022-04-03T14:06:02Z</time>
      </trkpt>
      <trkpt lat="43.52798" lon="-1.05051">
        <ele>9.75</ele>
        <time>2022-04-03T14:06:21Z</time>
      </trkpt>
      <trkpt lat="43.52804" lon="-1.05069">
        <ele>9.75</ele>
        <time>2022-04-03T14:06:35Z</time>
      </trkpt>
      <trkpt lat="43.5281" lon="-1.05087">
        <ele>9.75</ele>
        <time>2022-04-03T14:06:48Z</time>
      </trkpt>
      <trkpt lat="43.5282" lon="-1.05108">
        <ele>9.75</ele>
        <time>2022-04-03T14:07:06Z</time>
      </trkpt>
      <trkpt lat="43.52827" lon="-1.05129">
        <ele>9.75</ele>
        <time>2022-04-03T14:07:21Z</time>
      </trkpt>
      <trkpt lat="43.52834" lon="-1.05148">
        <ele>9.27</ele>
        <time>2022-04-03T14:07:37Z</time>
      </trkpt>
      <trkpt lat="43.52836" lon="-1.05163">
        <ele>9.27</ele>
        <time>2022-04-03T14:07:49Z</time>
      </trkpt>
      <trkpt lat="43.52844" lon="-1.05176">
        <ele>9.27</ele>
        <time>2022-04-03T14:08:04Z</time>
      </trkpt>
      <trkpt lat="43.5285" lon="-1.05201">
        <ele>8.79</ele>
        <time>2022-04-03T14:08:21Z</time>
      </trkpt>
      <trkpt lat="43.52851" lon="-1.05204">
        <ele>8.79</ele>
        <time>2022-04-03T14:08:25Z</time>
      </trkpt>
      <trkpt lat="43.52861" lon="-1.0522">
        <ele>8.79</ele>
        <time>2022-04-03T14:08:40Z</time>
      </trkpt>
      <trkpt lat="43.52868" lon="-1.05237">
        <ele>8.79</ele>
        <time>2022-04-03T14:08:56Z</time>
      </trkpt>
      <trkpt lat="43.52871" lon="-1.05252">
        <ele>8.79</ele>
        <time>2022-04-03T14:09:06Z</time>
      </trkpt>
      <trkpt lat="43.52881" lon="-1.05269">
        <ele>8.79</ele>
        <time>2022-04-03T14:09:21Z</time>
      </trkpt>
      <trkpt lat="43.52889" lon="-1.05289">
        <ele>8.79</ele>
        <time>2022-04-03T14:09:38Z</time>
      </trkpt>
      <trkpt lat="43.52895" lon="-1.05309">
        <ele>8.79</ele>
        <time>2022-04-03T14:09:50Z</time>
      </trkpt>
      <trkpt lat="43.52897" lon="-1.05318">
        <ele>8.79</ele>
        <time>2022-04-03T14:09:57Z</time>
      </trkpt>
      <trkpt lat="43.52901" lon="-1.05341">
        <ele>8.79</ele>
        <time>2022-04-03T14:10:13Z</time>
      </trkpt>
      <trkpt lat="43.52904" lon="-1.05363">
        <ele>8.79</ele>
        <time>2022-04-03T14:10:29Z</time>
      </trkpt>
      <trkpt lat="43.52909" lon="-1.05381">
        <ele>8.79</ele>
        <time>2022-04-03T14:10:43Z</time>
      </trkpt>
      <trkpt lat="43.52914" lon="-1.05404">
        <ele>9.27</ele>
        <time>2022-04-03T14:10:58Z</time>
      </trkpt>
      <trkpt lat="43.52916" lon="-1.05411">
        <ele>9.27</ele>
        <time>2022-04-03T14:11:11Z</time>
      </trkpt>
      <trkpt lat="43.52923" lon="-1.05433">
        <ele>9.27</ele>
        <time>2022-04-03T14:11:29Z</time>
      </trkpt>
      <trkpt lat="43.52928" lon="-1.05445">
        <ele>8.31</ele>
        <time>2022-04-03T14:11:39Z</time>
      </trkpt>
      <trkpt lat="43.52934" lon="-1.05456">
        <ele>7.35</ele>
        <time>2022-04-03T14:11:53Z</time>
      </trkpt>
      <trkpt lat="43.52938" lon="-1.05465">
        <ele>7.35</ele>
        <time>2022-04-03T14:11:58Z</time>
      </trkpt>
      <trkpt lat="43.52929" lon="-1.05469">
        <ele>15.5</ele>
      </trkpt>
      <trkpt lat="43.52923" lon="-1.05471">
        <ele>15.3</ele>
      </trkpt>
      <trkpt lat="43.52919" lon="-1.05474">
        <ele>15.1</ele>
      </trkpt>
      <trkpt lat="43.52915" lon="-1.05477">
        <ele>15</ele>
      </trkpt>
      <trkpt lat="43.52912" lon="-1.05483">
        <ele>7.35</ele>
        <time>2022-04-03T14:12:10Z</time>
      </trkpt>
      <trkpt lat="43.5291" lon="-1.05491">
        <ele>14.8</ele>
      </trkpt>
      <trkpt lat="43.52901" lon="-1.05505">
        <ele>6.87</ele>
        <time>2022-04-03T14:12:27Z</time>
      </trkpt>
      <trkpt lat="43.529" lon="-1.05511">
        <ele>6.39</ele>
        <time>2022-04-03T14:12:33Z</time>
      </trkpt>
      <trkpt lat="43.52901" lon="-1.05518">
        <ele>6.39</ele>
        <time>2022-04-03T14:12:46Z</time>
      </trkpt>
      <trkpt lat="43.52901" lon="-1.05521">
        <ele>5.91</ele>
        <time>2022-04-03T14:12:50Z</time>
      </trkpt>
      <trkpt lat="43.52902" lon="-1.05527">
        <ele>5.91</ele>
        <time>2022-04-03T14:13:01Z</time>
      </trkpt>
      <trkpt lat="43.52901" lon="-1.05529">
        <ele>5.91</ele>
        <time>2022-04-03T14:13:02Z</time>
      </trkpt>
      <trkpt lat="43.52903" lon="-1.05544">
        <ele>5.42</ele>
        <time>2022-04-03T14:13:18Z</time>
      </trkpt>
      <trkpt lat="43.52907" lon="-1.05553">
        <ele>5.42</ele>
        <time>2022-04-03T14:13:26Z</time>
      </trkpt>
      <trkpt lat="43.5291" lon="-1.05567">
        <ele>5.42</ele>
        <time>2022-04-03T14:13:40Z</time>
      </trkpt>
      <trkpt lat="43.52915" lon="-1.0559">
        <ele>5.42</ele>
        <time>2022-04-03T14:13:57Z</time>
      </trkpt>
      <trkpt lat="43.52915" lon="-1.05592">
        <ele>5.42</ele>
        <time>2022-04-03T14:14:00Z</time>
      </trkpt>
      <trkpt lat="43.52917" lon="-1.05603">
        <ele>12</ele>
        <time>2019-01-06T22:01:13Z</time>
      </trkpt>
      <trkpt lat="43.5292" lon="-1.05612">
        <ele>11</ele>
        <time>2019-01-06T22:02:13Z</time>
      </trkpt>
      <trkpt lat="43.52926" lon="-1.05616">
        <ele>13.3</ele>
      </trkpt>
      <trkpt lat="43.52928" lon="-1.05616">
        <ele>13.4</ele>
      </trkpt>
      <trkpt lat="43.52923" lon="-1.05628">
        <ele>17</ele>
        <time>2019-01-06T22:03:13Z</time>
      </trkpt>
      <trkpt lat="43.52921" lon="-1.05636">
        <ele>12.5</ele>
      </trkpt>
      <trkpt lat="43.52917" lon="-1.05642">
        <ele>12</ele>
      </trkpt>
      <trkpt lat="43.52912" lon="-1.05645">
        <ele>11.7</ele>
      </trkpt>
      <trkpt lat="43.52908" lon="-1.05649">
        <ele>11.3</ele>
      </trkpt>
      <trkpt lat="43.52907" lon="-1.0565">
        <ele>11.2</ele>
      </trkpt>
      <trkpt lat="43.5291" lon="-1.05656">
        <ele>11.4</ele>
      </trkpt>
      <trkpt lat="43.52907" lon="-1.05659">
        <ele>11.1</ele>
      </trkpt>
      <trkpt lat="43.52902" lon="-1.05661">
        <ele>10.5</ele>
      </trkpt>
      <trkpt lat="43.52899" lon="-1.05664">
        <ele>10.2</ele>
      </trkpt>
      <trkpt lat="43.52904" lon="-1.05676">
        <ele>10.4</ele>
      </trkpt>
      <trkpt lat="43.52908" lon="-1.05693">
        <ele>10.4</ele>
      </trkpt>
      <trkpt lat="43.52912" lon="-1.05704">
        <ele>10.4</ele>
      </trkpt>
      <trkpt lat="43.52914" lon="-1.05715">
        <ele>10.1</ele>
      </trkpt>
      <trkpt lat="43.52916" lon="-1.0573">
        <ele>9.7</ele>
      </trkpt>
      <trkpt lat="43.5292" lon="-1.05754">
        <ele>9.7</ele>
      </trkpt>
      <trkpt lat="43.52923" lon="-1.05772">
        <ele>10.4</ele>
      </trkpt>
      <trkpt lat="43.52926" lon="-1.05787">
        <ele>10.7</ele>
      </trkpt>
      <trkpt lat="43.52926" lon="-1.05805">
        <ele>10.4</ele>
      </trkpt>
      <trkpt lat="43.52928" lon="-1.05822">
        <ele>10.5</ele>
      </trkpt>
      <trkpt lat="43.52931" lon="-1.05838">
        <ele>11.3</ele>
      </trkpt>
      <trkpt lat="43.52937" lon="-1.05876">
        <ele>12.4</ele>
      </trkpt>
      <trkpt lat="43.52935" lon="-1.05885">
        <ele>11.5</ele>
      </trkpt>
      <trkpt lat="43.5293" lon="-1.05896">
        <ele>10.2</ele>
      </trkpt>
      <trkpt lat="43.5293" lon="-1.05912">
        <ele>9.5</ele>
      </trkpt>
      <trkpt lat="43.52929" lon="-1.05928">
        <ele>8.7</ele>
      </trkpt>
      <trkpt lat="43.52929" lon="-1.05941">
        <ele>8.1</ele>
      </trkpt>
      <trkpt lat="43.52934" lon="-1.05959">
        <ele>8.6</ele>
      </trkpt>
      <trkpt lat="43.5294" lon="-1.05982">
        <ele>9.2</ele>
      </trkpt>
      <trkpt lat="43.52947" lon="-1.06001">
        <ele>9.5</ele>
      </trkpt>
      <trkpt lat="43.52951" lon="-1.06014">
        <ele>9.9</ele>
      </trkpt>
      <trkpt lat="43.52957" lon="-1.06022">
        <ele>10.5</ele>
      </trkpt>
    </trkseg>
  </trk>
</gpx>